<?xml version="1.0" encoding="UTF-8" standalone="no" ?>
<gpx xmlns="http://www.topografix.com/GPX/1/1" xmlns:xsi="http://www.w3.org/2001/XMLSchema-instance" xsi:schemaLocation="http://www.topografix.com/GPX/1/1 http://www.topografix.com/GPX/1/1/gpx.xsd" version="1.1" creator="VisuGPX - https://www.visugpx.com">
  <metadata>
    <name>CHENOVE Marche du mardi 31 juillet 2012</name>
    <desc><![CDATA[Marche libre avec Francesco]]></desc>
  </metadata>
  <trk>
    <name><![CDATA[CHENOVE Marche du mardi 31 juillet 2012_1]]></name>
    <trkseg>
      <trkpt lat="47.29235" lon="5.00605">
        <ele>272.785</ele>
        <time>2012-07-31T07:33:08Z</time>
      </trkpt>
      <trkpt lat="47.29237" lon="5.006">
        <ele>271.223</ele>
        <time>2012-07-31T07:33:19Z</time>
      </trkpt>
      <trkpt lat="47.29238" lon="5.00588">
        <ele>270.7</ele>
        <time>2012-07-31T07:33:30Z</time>
      </trkpt>
      <trkpt lat="47.29238" lon="5.00587">
        <ele>269.347</ele>
        <time>2012-07-31T07:33:41Z</time>
      </trkpt>
      <trkpt lat="47.29237" lon="5.00587">
        <ele>270.082</ele>
        <time>2012-07-31T07:33:52Z</time>
      </trkpt>
      <trkpt lat="47.29227" lon="5.00573">
        <ele>275.541</ele>
        <time>2012-07-31T07:34:03Z</time>
      </trkpt>
      <trkpt lat="47.29227" lon="5.00563">
        <ele>285.395</ele>
        <time>2012-07-31T07:34:14Z</time>
      </trkpt>
      <trkpt lat="47.29227" lon="5.00533">
        <ele>287.874</ele>
        <time>2012-07-31T07:34:25Z</time>
      </trkpt>
      <trkpt lat="47.29227" lon="5.00517">
        <ele>288.043</ele>
        <time>2012-07-31T07:34:36Z</time>
      </trkpt>
      <trkpt lat="47.29225" lon="5.00498">
        <ele>293.411</ele>
        <time>2012-07-31T07:34:47Z</time>
      </trkpt>
      <trkpt lat="47.2923" lon="5.00478">
        <ele>295.133</ele>
        <time>2012-07-31T07:34:58Z</time>
      </trkpt>
      <trkpt lat="47.29225" lon="5.00467">
        <ele>292.72</ele>
        <time>2012-07-31T07:35:09Z</time>
      </trkpt>
      <trkpt lat="47.29215" lon="5.00457">
        <ele>287.335</ele>
        <time>2012-07-31T07:35:20Z</time>
      </trkpt>
      <trkpt lat="47.29213" lon="5.00452">
        <ele>288.553</ele>
        <time>2012-07-31T07:35:31Z</time>
      </trkpt>
      <trkpt lat="47.2922" lon="5.00427">
        <ele>290.14</ele>
        <time>2012-07-31T07:35:42Z</time>
      </trkpt>
      <trkpt lat="47.29218" lon="5.00405">
        <ele>289.785</ele>
        <time>2012-07-31T07:35:53Z</time>
      </trkpt>
      <trkpt lat="47.2921" lon="5.00388">
        <ele>285.869</ele>
        <time>2012-07-31T07:36:04Z</time>
      </trkpt>
      <trkpt lat="47.29205" lon="5.00377">
        <ele>285.294</ele>
        <time>2012-07-31T07:36:15Z</time>
      </trkpt>
      <trkpt lat="47.292" lon="5.00357">
        <ele>288.169</ele>
        <time>2012-07-31T07:36:26Z</time>
      </trkpt>
      <trkpt lat="47.29195" lon="5.00343">
        <ele>290.362</ele>
        <time>2012-07-31T07:36:37Z</time>
      </trkpt>
      <trkpt lat="47.29195" lon="5.00325">
        <ele>290.215</ele>
        <time>2012-07-31T07:36:48Z</time>
      </trkpt>
      <trkpt lat="47.29197" lon="5.0031">
        <ele>293.231</ele>
        <time>2012-07-31T07:36:59Z</time>
      </trkpt>
      <trkpt lat="47.29197" lon="5.0029">
        <ele>295.427</ele>
        <time>2012-07-31T07:37:10Z</time>
      </trkpt>
      <trkpt lat="47.29203" lon="5.0027">
        <ele>292.919</ele>
        <time>2012-07-31T07:37:21Z</time>
      </trkpt>
      <trkpt lat="47.2921" lon="5.00252">
        <ele>291.784</ele>
        <time>2012-07-31T07:37:32Z</time>
      </trkpt>
      <trkpt lat="47.29207" lon="5.00238">
        <ele>288.836</ele>
        <time>2012-07-31T07:37:43Z</time>
      </trkpt>
      <trkpt lat="47.2919" lon="5.00232">
        <ele>288.911</ele>
        <time>2012-07-31T07:37:54Z</time>
      </trkpt>
      <trkpt lat="47.29183" lon="5.00222">
        <ele>292.587</ele>
        <time>2012-07-31T07:38:05Z</time>
      </trkpt>
      <trkpt lat="47.2918" lon="5.00213">
        <ele>291.71</ele>
        <time>2012-07-31T07:38:16Z</time>
      </trkpt>
      <trkpt lat="47.29182" lon="5.00195">
        <ele>288.987</ele>
        <time>2012-07-31T07:38:27Z</time>
      </trkpt>
      <trkpt lat="47.29185" lon="5.00173">
        <ele>291.133</ele>
        <time>2012-07-31T07:38:38Z</time>
      </trkpt>
      <trkpt lat="47.29188" lon="5.0015">
        <ele>290.446</ele>
        <time>2012-07-31T07:38:49Z</time>
      </trkpt>
      <trkpt lat="47.29188" lon="5.0013">
        <ele>286.251</ele>
        <time>2012-07-31T07:39:00Z</time>
      </trkpt>
      <trkpt lat="47.2919" lon="5.00123">
        <ele>287.916</ele>
        <time>2012-07-31T07:39:11Z</time>
      </trkpt>
      <trkpt lat="47.2919" lon="5.00123">
        <ele>287.916</ele>
        <time>2012-07-31T07:39:22Z</time>
      </trkpt>
      <trkpt lat="47.2919" lon="5.00123">
        <ele>287.916</ele>
        <time>2012-07-31T07:39:33Z</time>
      </trkpt>
      <trkpt lat="47.29195" lon="5.00113">
        <ele>288.636</ele>
        <time>2012-07-31T07:39:44Z</time>
      </trkpt>
      <trkpt lat="47.29193" lon="5.00098">
        <ele>290.001</ele>
        <time>2012-07-31T07:39:55Z</time>
      </trkpt>
      <trkpt lat="47.29197" lon="5.00077">
        <ele>287.833</ele>
        <time>2012-07-31T07:40:06Z</time>
      </trkpt>
      <trkpt lat="47.29197" lon="5.00053">
        <ele>289.074</ele>
        <time>2012-07-31T07:40:17Z</time>
      </trkpt>
      <trkpt lat="47.29192" lon="5.00043">
        <ele>291.439</ele>
        <time>2012-07-31T07:40:28Z</time>
      </trkpt>
      <trkpt lat="47.29188" lon="5.0004">
        <ele>292.419</ele>
        <time>2012-07-31T07:40:39Z</time>
      </trkpt>
      <trkpt lat="47.2918" lon="5.00037">
        <ele>293.008</ele>
        <time>2012-07-31T07:40:50Z</time>
      </trkpt>
      <trkpt lat="47.29165" lon="5.00033">
        <ele>292.416</ele>
        <time>2012-07-31T07:41:01Z</time>
      </trkpt>
      <trkpt lat="47.29158" lon="5.0003">
        <ele>289.871</ele>
        <time>2012-07-31T07:41:12Z</time>
      </trkpt>
      <trkpt lat="47.29148" lon="5.00025">
        <ele>287.07</ele>
        <time>2012-07-31T07:41:23Z</time>
      </trkpt>
      <trkpt lat="47.29142" lon="5.00022">
        <ele>288.564</ele>
        <time>2012-07-31T07:41:34Z</time>
      </trkpt>
      <trkpt lat="47.29135" lon="5.00017">
        <ele>287.226</ele>
        <time>2012-07-31T07:41:45Z</time>
      </trkpt>
      <trkpt lat="47.29127" lon="5.00013">
        <ele>286.281</ele>
        <time>2012-07-31T07:41:56Z</time>
      </trkpt>
      <trkpt lat="47.29115" lon="5.00002">
        <ele>285.58</ele>
        <time>2012-07-31T07:42:07Z</time>
      </trkpt>
      <trkpt lat="47.29107" lon="4.99995">
        <ele>283.074</ele>
        <time>2012-07-31T07:42:18Z</time>
      </trkpt>
      <trkpt lat="47.29088" lon="4.99982">
        <ele>281.097</ele>
        <time>2012-07-31T07:42:29Z</time>
      </trkpt>
      <trkpt lat="47.29075" lon="4.99973">
        <ele>279.616</ele>
        <time>2012-07-31T07:42:40Z</time>
      </trkpt>
      <trkpt lat="47.29073" lon="4.9997">
        <ele>279.742</ele>
        <time>2012-07-31T07:42:51Z</time>
      </trkpt>
      <trkpt lat="47.29053" lon="4.9996">
        <ele>278.395</ele>
        <time>2012-07-31T07:43:02Z</time>
      </trkpt>
      <trkpt lat="47.29035" lon="4.99947">
        <ele>277.498</ele>
        <time>2012-07-31T07:43:13Z</time>
      </trkpt>
      <trkpt lat="47.29015" lon="4.9993">
        <ele>278.782</ele>
        <time>2012-07-31T07:43:24Z</time>
      </trkpt>
      <trkpt lat="47.29008" lon="4.99923">
        <ele>278.026</ele>
        <time>2012-07-31T07:43:35Z</time>
      </trkpt>
      <trkpt lat="47.28997" lon="4.99917">
        <ele>278.903</ele>
        <time>2012-07-31T07:43:46Z</time>
      </trkpt>
      <trkpt lat="47.28983" lon="4.9991">
        <ele>277.315</ele>
        <time>2012-07-31T07:43:57Z</time>
      </trkpt>
      <trkpt lat="47.2897" lon="4.99905">
        <ele>278.318</ele>
        <time>2012-07-31T07:44:08Z</time>
      </trkpt>
      <trkpt lat="47.28962" lon="4.99902">
        <ele>278.935</ele>
        <time>2012-07-31T07:44:19Z</time>
      </trkpt>
      <trkpt lat="47.28945" lon="4.99895">
        <ele>276.511</ele>
        <time>2012-07-31T07:44:30Z</time>
      </trkpt>
      <trkpt lat="47.28933" lon="4.9989">
        <ele>278.065</ele>
        <time>2012-07-31T07:44:41Z</time>
      </trkpt>
      <trkpt lat="47.28923" lon="4.99887">
        <ele>277.948</ele>
        <time>2012-07-31T07:44:52Z</time>
      </trkpt>
      <trkpt lat="47.28913" lon="4.99882">
        <ele>279.581</ele>
        <time>2012-07-31T07:45:03Z</time>
      </trkpt>
      <trkpt lat="47.28907" lon="4.9988">
        <ele>279.012</ele>
        <time>2012-07-31T07:45:14Z</time>
      </trkpt>
      <trkpt lat="47.28893" lon="4.99853">
        <ele>278.814</ele>
        <time>2012-07-31T07:45:25Z</time>
      </trkpt>
      <trkpt lat="47.28888" lon="4.9983">
        <ele>281.506</ele>
        <time>2012-07-31T07:45:36Z</time>
      </trkpt>
      <trkpt lat="47.28882" lon="4.99807">
        <ele>283.06</ele>
        <time>2012-07-31T07:45:47Z</time>
      </trkpt>
      <trkpt lat="47.28877" lon="4.99782">
        <ele>282.71</ele>
        <time>2012-07-31T07:45:58Z</time>
      </trkpt>
      <trkpt lat="47.28877" lon="4.99772">
        <ele>283.832</ele>
        <time>2012-07-31T07:46:09Z</time>
      </trkpt>
      <trkpt lat="47.28872" lon="4.99752">
        <ele>286.281</ele>
        <time>2012-07-31T07:46:20Z</time>
      </trkpt>
      <trkpt lat="47.28873" lon="4.9973">
        <ele>288.159</ele>
        <time>2012-07-31T07:46:31Z</time>
      </trkpt>
      <trkpt lat="47.28875" lon="4.9971">
        <ele>292.861</ele>
        <time>2012-07-31T07:46:42Z</time>
      </trkpt>
      <trkpt lat="47.28873" lon="4.99695">
        <ele>296.776</ele>
        <time>2012-07-31T07:46:53Z</time>
      </trkpt>
      <trkpt lat="47.28872" lon="4.99677">
        <ele>301.538</ele>
        <time>2012-07-31T07:47:04Z</time>
      </trkpt>
      <trkpt lat="47.2887" lon="4.99663">
        <ele>302.504</ele>
        <time>2012-07-31T07:47:15Z</time>
      </trkpt>
      <trkpt lat="47.28872" lon="4.99652">
        <ele>303.481</ele>
        <time>2012-07-31T07:47:26Z</time>
      </trkpt>
      <trkpt lat="47.28872" lon="4.9964">
        <ele>302.376</ele>
        <time>2012-07-31T07:47:37Z</time>
      </trkpt>
      <trkpt lat="47.28872" lon="4.9964">
        <ele>302.376</ele>
        <time>2012-07-31T07:47:48Z</time>
      </trkpt>
      <trkpt lat="47.28872" lon="4.9964">
        <ele>302.376</ele>
        <time>2012-07-31T07:47:59Z</time>
      </trkpt>
      <trkpt lat="47.28872" lon="4.9964">
        <ele>302.376</ele>
        <time>2012-07-31T07:48:10Z</time>
      </trkpt>
      <trkpt lat="47.28872" lon="4.9964">
        <ele>302.376</ele>
        <time>2012-07-31T07:48:21Z</time>
      </trkpt>
      <trkpt lat="47.28868" lon="4.99638">
        <ele>301.482</ele>
        <time>2012-07-31T07:48:32Z</time>
      </trkpt>
      <trkpt lat="47.28865" lon="4.99632">
        <ele>302.883</ele>
        <time>2012-07-31T07:48:43Z</time>
      </trkpt>
      <trkpt lat="47.28862" lon="4.99625">
        <ele>304.804</ele>
        <time>2012-07-31T07:48:54Z</time>
      </trkpt>
      <trkpt lat="47.28853" lon="4.99623">
        <ele>306.77</ele>
        <time>2012-07-31T07:49:05Z</time>
      </trkpt>
      <trkpt lat="47.28847" lon="4.99622">
        <ele>307.851</ele>
        <time>2012-07-31T07:49:16Z</time>
      </trkpt>
      <trkpt lat="47.28835" lon="4.99622">
        <ele>308.378</ele>
        <time>2012-07-31T07:49:27Z</time>
      </trkpt>
      <trkpt lat="47.28832" lon="4.9962">
        <ele>307.981</ele>
        <time>2012-07-31T07:49:38Z</time>
      </trkpt>
      <trkpt lat="47.28825" lon="4.99615">
        <ele>309.442</ele>
        <time>2012-07-31T07:49:49Z</time>
      </trkpt>
      <trkpt lat="47.28817" lon="4.9961">
        <ele>309.429</ele>
        <time>2012-07-31T07:50:00Z</time>
      </trkpt>
      <trkpt lat="47.28812" lon="4.99607">
        <ele>308.982</ele>
        <time>2012-07-31T07:50:11Z</time>
      </trkpt>
      <trkpt lat="47.288" lon="4.99602">
        <ele>309.449</ele>
        <time>2012-07-31T07:50:22Z</time>
      </trkpt>
      <trkpt lat="47.28787" lon="4.99592">
        <ele>313.494</ele>
        <time>2012-07-31T07:50:33Z</time>
      </trkpt>
      <trkpt lat="47.28782" lon="4.99587">
        <ele>313.823</ele>
        <time>2012-07-31T07:50:44Z</time>
      </trkpt>
      <trkpt lat="47.2877" lon="4.99585">
        <ele>311.739</ele>
        <time>2012-07-31T07:50:55Z</time>
      </trkpt>
      <trkpt lat="47.2876" lon="4.99583">
        <ele>310.507</ele>
        <time>2012-07-31T07:51:06Z</time>
      </trkpt>
      <trkpt lat="47.2875" lon="4.99572">
        <ele>311.146</ele>
        <time>2012-07-31T07:51:17Z</time>
      </trkpt>
      <trkpt lat="47.2874" lon="4.9956">
        <ele>312.058</ele>
        <time>2012-07-31T07:51:28Z</time>
      </trkpt>
      <trkpt lat="47.28735" lon="4.99557">
        <ele>311.559</ele>
        <time>2012-07-31T07:51:39Z</time>
      </trkpt>
      <trkpt lat="47.28723" lon="4.99548">
        <ele>313.34</ele>
        <time>2012-07-31T07:51:50Z</time>
      </trkpt>
      <trkpt lat="47.2871" lon="4.99547">
        <ele>313.372</ele>
        <time>2012-07-31T07:52:01Z</time>
      </trkpt>
      <trkpt lat="47.28705" lon="4.99545">
        <ele>313.479</ele>
        <time>2012-07-31T07:52:12Z</time>
      </trkpt>
      <trkpt lat="47.28692" lon="4.9954">
        <ele>315.16</ele>
        <time>2012-07-31T07:52:23Z</time>
      </trkpt>
      <trkpt lat="47.28678" lon="4.99533">
        <ele>316.037</ele>
        <time>2012-07-31T07:52:34Z</time>
      </trkpt>
      <trkpt lat="47.28668" lon="4.99525">
        <ele>319.014</ele>
        <time>2012-07-31T07:52:45Z</time>
      </trkpt>
      <trkpt lat="47.28648" lon="4.99512">
        <ele>321.109</ele>
        <time>2012-07-31T07:52:56Z</time>
      </trkpt>
      <trkpt lat="47.28637" lon="4.99507">
        <ele>321.656</ele>
        <time>2012-07-31T07:53:07Z</time>
      </trkpt>
      <trkpt lat="47.28633" lon="4.99493">
        <ele>321.305</ele>
        <time>2012-07-31T07:53:18Z</time>
      </trkpt>
      <trkpt lat="47.28623" lon="4.9948">
        <ele>327.47</ele>
        <time>2012-07-31T07:53:29Z</time>
      </trkpt>
      <trkpt lat="47.28613" lon="4.9947">
        <ele>329.666</ele>
        <time>2012-07-31T07:53:40Z</time>
      </trkpt>
      <trkpt lat="47.286" lon="4.99463">
        <ele>333.597</ele>
        <time>2012-07-31T07:53:51Z</time>
      </trkpt>
      <trkpt lat="47.2859" lon="4.99453">
        <ele>331.41</ele>
        <time>2012-07-31T07:54:02Z</time>
      </trkpt>
      <trkpt lat="47.28585" lon="4.99447">
        <ele>328.851</ele>
        <time>2012-07-31T07:54:13Z</time>
      </trkpt>
      <trkpt lat="47.28573" lon="4.99437">
        <ele>332.088</ele>
        <time>2012-07-31T07:54:24Z</time>
      </trkpt>
      <trkpt lat="47.28567" lon="4.99418">
        <ele>332.925</ele>
        <time>2012-07-31T07:54:35Z</time>
      </trkpt>
      <trkpt lat="47.28562" lon="4.99407">
        <ele>334.783</ele>
        <time>2012-07-31T07:54:46Z</time>
      </trkpt>
      <trkpt lat="47.28555" lon="4.99393">
        <ele>332.746</ele>
        <time>2012-07-31T07:54:57Z</time>
      </trkpt>
      <trkpt lat="47.28548" lon="4.99383">
        <ele>333.853</ele>
        <time>2012-07-31T07:55:08Z</time>
      </trkpt>
      <trkpt lat="47.28535" lon="4.99363">
        <ele>339.523</ele>
        <time>2012-07-31T07:55:19Z</time>
      </trkpt>
      <trkpt lat="47.28525" lon="4.99352">
        <ele>343.28</ele>
        <time>2012-07-31T07:55:30Z</time>
      </trkpt>
      <trkpt lat="47.28512" lon="4.9934">
        <ele>340.823</ele>
        <time>2012-07-31T07:55:41Z</time>
      </trkpt>
      <trkpt lat="47.28505" lon="4.99322">
        <ele>341.753</ele>
        <time>2012-07-31T07:55:52Z</time>
      </trkpt>
      <trkpt lat="47.28498" lon="4.99308">
        <ele>345.542</ele>
        <time>2012-07-31T07:56:03Z</time>
      </trkpt>
      <trkpt lat="47.28487" lon="4.99295">
        <ele>347.763</ele>
        <time>2012-07-31T07:56:14Z</time>
      </trkpt>
      <trkpt lat="47.2848" lon="4.9928">
        <ele>345.704</ele>
        <time>2012-07-31T07:56:25Z</time>
      </trkpt>
      <trkpt lat="47.28475" lon="4.9927">
        <ele>347.362</ele>
        <time>2012-07-31T07:56:36Z</time>
      </trkpt>
      <trkpt lat="47.2847" lon="4.99255">
        <ele>350.68</ele>
        <time>2012-07-31T07:56:47Z</time>
      </trkpt>
      <trkpt lat="47.2846" lon="4.99235">
        <ele>346.914</ele>
        <time>2012-07-31T07:56:58Z</time>
      </trkpt>
      <trkpt lat="47.28455" lon="4.9922">
        <ele>347.882</ele>
        <time>2012-07-31T07:57:09Z</time>
      </trkpt>
      <trkpt lat="47.28443" lon="4.99208">
        <ele>346.151</ele>
        <time>2012-07-31T07:57:20Z</time>
      </trkpt>
      <trkpt lat="47.28438" lon="4.99185">
        <ele>346.846</ele>
        <time>2012-07-31T07:57:31Z</time>
      </trkpt>
      <trkpt lat="47.28438" lon="4.99172">
        <ele>351.792</ele>
        <time>2012-07-31T07:57:42Z</time>
      </trkpt>
      <trkpt lat="47.28435" lon="4.99148">
        <ele>349.524</ele>
        <time>2012-07-31T07:57:53Z</time>
      </trkpt>
      <trkpt lat="47.2843" lon="4.99128">
        <ele>349.747</ele>
        <time>2012-07-31T07:58:04Z</time>
      </trkpt>
      <trkpt lat="47.28418" lon="4.99112">
        <ele>347.507</ele>
        <time>2012-07-31T07:58:15Z</time>
      </trkpt>
      <trkpt lat="47.28415" lon="4.99093">
        <ele>346.932</ele>
        <time>2012-07-31T07:58:26Z</time>
      </trkpt>
      <trkpt lat="47.28408" lon="4.9908">
        <ele>344.112</ele>
        <time>2012-07-31T07:58:37Z</time>
      </trkpt>
      <trkpt lat="47.28408" lon="4.99065">
        <ele>348.159</ele>
        <time>2012-07-31T07:58:48Z</time>
      </trkpt>
      <trkpt lat="47.28412" lon="4.9903">
        <ele>344.951</ele>
        <time>2012-07-31T07:58:59Z</time>
      </trkpt>
      <trkpt lat="47.2841" lon="4.99018">
        <ele>346.312</ele>
        <time>2012-07-31T07:59:10Z</time>
      </trkpt>
      <trkpt lat="47.28405" lon="4.99003">
        <ele>347.47</ele>
        <time>2012-07-31T07:59:21Z</time>
      </trkpt>
      <trkpt lat="47.28405" lon="4.98982">
        <ele>348.091</ele>
        <time>2012-07-31T07:59:32Z</time>
      </trkpt>
      <trkpt lat="47.28403" lon="4.9896">
        <ele>345.252</ele>
        <time>2012-07-31T07:59:43Z</time>
      </trkpt>
      <trkpt lat="47.28388" lon="4.98938">
        <ele>341.597</ele>
        <time>2012-07-31T07:59:54Z</time>
      </trkpt>
      <trkpt lat="47.28383" lon="4.9893">
        <ele>346.03</ele>
        <time>2012-07-31T08:00:05Z</time>
      </trkpt>
      <trkpt lat="47.28378" lon="4.98918">
        <ele>349.805</ele>
        <time>2012-07-31T08:00:16Z</time>
      </trkpt>
      <trkpt lat="47.28375" lon="4.98902">
        <ele>349.723</ele>
        <time>2012-07-31T08:00:27Z</time>
      </trkpt>
      <trkpt lat="47.28368" lon="4.98882">
        <ele>348.792</ele>
        <time>2012-07-31T08:00:38Z</time>
      </trkpt>
      <trkpt lat="47.2836" lon="4.9886">
        <ele>348.154</ele>
        <time>2012-07-31T08:00:49Z</time>
      </trkpt>
      <trkpt lat="47.2836" lon="4.98828">
        <ele>350.061</ele>
        <time>2012-07-31T08:01:00Z</time>
      </trkpt>
      <trkpt lat="47.28362" lon="4.98807">
        <ele>346.743</ele>
        <time>2012-07-31T08:01:11Z</time>
      </trkpt>
      <trkpt lat="47.28362" lon="4.98795">
        <ele>349.386</ele>
        <time>2012-07-31T08:01:22Z</time>
      </trkpt>
      <trkpt lat="47.28355" lon="4.98772">
        <ele>350.453</ele>
        <time>2012-07-31T08:01:33Z</time>
      </trkpt>
      <trkpt lat="47.28353" lon="4.9876">
        <ele>348.056</ele>
        <time>2012-07-31T08:01:44Z</time>
      </trkpt>
      <trkpt lat="47.28347" lon="4.98742">
        <ele>343.802</ele>
        <time>2012-07-31T08:01:55Z</time>
      </trkpt>
      <trkpt lat="47.28345" lon="4.98722">
        <ele>340.622</ele>
        <time>2012-07-31T08:02:06Z</time>
      </trkpt>
      <trkpt lat="47.28347" lon="4.98697">
        <ele>339.047</ele>
        <time>2012-07-31T08:02:17Z</time>
      </trkpt>
      <trkpt lat="47.28352" lon="4.98675">
        <ele>340.582</ele>
        <time>2012-07-31T08:02:28Z</time>
      </trkpt>
      <trkpt lat="47.28352" lon="4.98645">
        <ele>336.663</ele>
        <time>2012-07-31T08:02:39Z</time>
      </trkpt>
      <trkpt lat="47.28347" lon="4.98623">
        <ele>334.99</ele>
        <time>2012-07-31T08:02:50Z</time>
      </trkpt>
      <trkpt lat="47.28345" lon="4.98607">
        <ele>333.041</ele>
        <time>2012-07-31T08:03:01Z</time>
      </trkpt>
      <trkpt lat="47.28348" lon="4.98593">
        <ele>335.546</ele>
        <time>2012-07-31T08:03:12Z</time>
      </trkpt>
      <trkpt lat="47.28355" lon="4.9857">
        <ele>333.297</ele>
        <time>2012-07-31T08:03:23Z</time>
      </trkpt>
      <trkpt lat="47.28357" lon="4.9855">
        <ele>333.804</ele>
        <time>2012-07-31T08:03:34Z</time>
      </trkpt>
      <trkpt lat="47.2836" lon="4.98528">
        <ele>332.081</ele>
        <time>2012-07-31T08:03:45Z</time>
      </trkpt>
      <trkpt lat="47.28362" lon="4.98508">
        <ele>329.54</ele>
        <time>2012-07-31T08:03:56Z</time>
      </trkpt>
      <trkpt lat="47.28358" lon="4.98485">
        <ele>326.466</ele>
        <time>2012-07-31T08:04:07Z</time>
      </trkpt>
      <trkpt lat="47.28368" lon="4.9846">
        <ele>329.322</ele>
        <time>2012-07-31T08:04:18Z</time>
      </trkpt>
      <trkpt lat="47.28368" lon="4.98443">
        <ele>331.399</ele>
        <time>2012-07-31T08:04:29Z</time>
      </trkpt>
      <trkpt lat="47.28365" lon="4.98438">
        <ele>330.6</ele>
        <time>2012-07-31T08:04:40Z</time>
      </trkpt>
      <trkpt lat="47.28357" lon="4.9844">
        <ele>330.968</ele>
        <time>2012-07-31T08:04:51Z</time>
      </trkpt>
      <trkpt lat="47.28347" lon="4.98443">
        <ele>330.991</ele>
        <time>2012-07-31T08:05:02Z</time>
      </trkpt>
      <trkpt lat="47.28335" lon="4.98447">
        <ele>329.504</ele>
        <time>2012-07-31T08:05:13Z</time>
      </trkpt>
      <trkpt lat="47.28332" lon="4.98458">
        <ele>330.621</ele>
        <time>2012-07-31T08:05:24Z</time>
      </trkpt>
      <trkpt lat="47.28315" lon="4.98468">
        <ele>327.817</ele>
        <time>2012-07-31T08:05:35Z</time>
      </trkpt>
      <trkpt lat="47.28312" lon="4.98468">
        <ele>329.044</ele>
        <time>2012-07-31T08:05:46Z</time>
      </trkpt>
      <trkpt lat="47.28312" lon="4.9845">
        <ele>328.401</ele>
        <time>2012-07-31T08:05:57Z</time>
      </trkpt>
      <trkpt lat="47.28313" lon="4.98428">
        <ele>328.921</ele>
        <time>2012-07-31T08:06:08Z</time>
      </trkpt>
      <trkpt lat="47.28325" lon="4.98415">
        <ele>332.843</ele>
        <time>2012-07-31T08:06:19Z</time>
      </trkpt>
      <trkpt lat="47.28327" lon="4.98408">
        <ele>333.481</ele>
        <time>2012-07-31T08:06:30Z</time>
      </trkpt>
      <trkpt lat="47.28338" lon="4.98395">
        <ele>333.285</ele>
        <time>2012-07-31T08:06:41Z</time>
      </trkpt>
      <trkpt lat="47.28345" lon="4.98385">
        <ele>333.504</ele>
        <time>2012-07-31T08:06:52Z</time>
      </trkpt>
      <trkpt lat="47.2835" lon="4.9837">
        <ele>333.035</ele>
        <time>2012-07-31T08:07:03Z</time>
      </trkpt>
      <trkpt lat="47.28352" lon="4.98353">
        <ele>332.73</ele>
        <time>2012-07-31T08:07:14Z</time>
      </trkpt>
      <trkpt lat="47.28355" lon="4.98335">
        <ele>333.449</ele>
        <time>2012-07-31T08:07:25Z</time>
      </trkpt>
      <trkpt lat="47.2836" lon="4.98317">
        <ele>333.355</ele>
        <time>2012-07-31T08:07:36Z</time>
      </trkpt>
      <trkpt lat="47.28362" lon="4.983">
        <ele>333.07</ele>
        <time>2012-07-31T08:07:47Z</time>
      </trkpt>
      <trkpt lat="47.2836" lon="4.98292">
        <ele>333.41</ele>
        <time>2012-07-31T08:07:58Z</time>
      </trkpt>
      <trkpt lat="47.28352" lon="4.98283">
        <ele>333.83</ele>
        <time>2012-07-31T08:08:09Z</time>
      </trkpt>
      <trkpt lat="47.28338" lon="4.9827">
        <ele>336.088</ele>
        <time>2012-07-31T08:08:20Z</time>
      </trkpt>
      <trkpt lat="47.28325" lon="4.9826">
        <ele>334.67</ele>
        <time>2012-07-31T08:08:31Z</time>
      </trkpt>
      <trkpt lat="47.28313" lon="4.98247">
        <ele>328.142</ele>
        <time>2012-07-31T08:08:42Z</time>
      </trkpt>
      <trkpt lat="47.28305" lon="4.9824">
        <ele>327.235</ele>
        <time>2012-07-31T08:08:53Z</time>
      </trkpt>
      <trkpt lat="47.28292" lon="4.98228">
        <ele>321.83</ele>
        <time>2012-07-31T08:09:04Z</time>
      </trkpt>
      <trkpt lat="47.28285" lon="4.98215">
        <ele>324.739</ele>
        <time>2012-07-31T08:09:15Z</time>
      </trkpt>
      <trkpt lat="47.28278" lon="4.98205">
        <ele>331.997</ele>
        <time>2012-07-31T08:09:26Z</time>
      </trkpt>
      <trkpt lat="47.2826" lon="4.9819">
        <ele>325.935</ele>
        <time>2012-07-31T08:09:37Z</time>
      </trkpt>
      <trkpt lat="47.28232" lon="4.98168">
        <ele>309.402</ele>
        <time>2012-07-31T08:09:48Z</time>
      </trkpt>
      <trkpt lat="47.28212" lon="4.98155">
        <ele>305.234</ele>
        <time>2012-07-31T08:09:59Z</time>
      </trkpt>
      <trkpt lat="47.28197" lon="4.98147">
        <ele>299.27</ele>
        <time>2012-07-31T08:10:10Z</time>
      </trkpt>
      <trkpt lat="47.28193" lon="4.9814">
        <ele>306.736</ele>
        <time>2012-07-31T08:10:21Z</time>
      </trkpt>
      <trkpt lat="47.28175" lon="4.9813">
        <ele>300.004</ele>
        <time>2012-07-31T08:10:32Z</time>
      </trkpt>
      <trkpt lat="47.28172" lon="4.98123">
        <ele>306.804</ele>
        <time>2012-07-31T08:10:43Z</time>
      </trkpt>
      <trkpt lat="47.28152" lon="4.98112">
        <ele>296.83</ele>
        <time>2012-07-31T08:10:54Z</time>
      </trkpt>
      <trkpt lat="47.28147" lon="4.98108">
        <ele>303.668</ele>
        <time>2012-07-31T08:11:05Z</time>
      </trkpt>
      <trkpt lat="47.28132" lon="4.98098">
        <ele>301.55</ele>
        <time>2012-07-31T08:11:16Z</time>
      </trkpt>
      <trkpt lat="47.28122" lon="4.98088">
        <ele>303.254</ele>
        <time>2012-07-31T08:11:27Z</time>
      </trkpt>
      <trkpt lat="47.28103" lon="4.98072">
        <ele>306.002</ele>
        <time>2012-07-31T08:11:38Z</time>
      </trkpt>
      <trkpt lat="47.28097" lon="4.98063">
        <ele>312.526</ele>
        <time>2012-07-31T08:11:49Z</time>
      </trkpt>
      <trkpt lat="47.28083" lon="4.98055">
        <ele>304.283</ele>
        <time>2012-07-31T08:12:00Z</time>
      </trkpt>
      <trkpt lat="47.28055" lon="4.98027">
        <ele>283.411</ele>
        <time>2012-07-31T08:12:11Z</time>
      </trkpt>
      <trkpt lat="47.28053" lon="4.98018">
        <ele>282.834</ele>
        <time>2012-07-31T08:12:22Z</time>
      </trkpt>
      <trkpt lat="47.28048" lon="4.97992">
        <ele>271.722</ele>
        <time>2012-07-31T08:12:33Z</time>
      </trkpt>
      <trkpt lat="47.28053" lon="4.97983">
        <ele>275.043</ele>
        <time>2012-07-31T08:12:44Z</time>
      </trkpt>
      <trkpt lat="47.28058" lon="4.97975">
        <ele>279.183</ele>
        <time>2012-07-31T08:12:55Z</time>
      </trkpt>
      <trkpt lat="47.28063" lon="4.97958">
        <ele>280.503</ele>
        <time>2012-07-31T08:13:06Z</time>
      </trkpt>
      <trkpt lat="47.28063" lon="4.97943">
        <ele>276.915</ele>
        <time>2012-07-31T08:13:17Z</time>
      </trkpt>
      <trkpt lat="47.28062" lon="4.97925">
        <ele>270.568</ele>
        <time>2012-07-31T08:13:28Z</time>
      </trkpt>
      <trkpt lat="47.28062" lon="4.97923">
        <ele>269.807</ele>
        <time>2012-07-31T08:13:39Z</time>
      </trkpt>
      <trkpt lat="47.28107" lon="4.97922">
        <ele>312.208</ele>
        <time>2012-07-31T08:13:50Z</time>
      </trkpt>
      <trkpt lat="47.28132" lon="4.97902">
        <ele>324.257</ele>
        <time>2012-07-31T08:14:01Z</time>
      </trkpt>
      <trkpt lat="47.28137" lon="4.97887">
        <ele>321.926</ele>
        <time>2012-07-31T08:14:12Z</time>
      </trkpt>
      <trkpt lat="47.28143" lon="4.97863">
        <ele>320.576</ele>
        <time>2012-07-31T08:14:23Z</time>
      </trkpt>
      <trkpt lat="47.28147" lon="4.97837">
        <ele>318.107</ele>
        <time>2012-07-31T08:14:34Z</time>
      </trkpt>
      <trkpt lat="47.28147" lon="4.97813">
        <ele>316.827</ele>
        <time>2012-07-31T08:14:45Z</time>
      </trkpt>
      <trkpt lat="47.28147" lon="4.97792">
        <ele>316.525</ele>
        <time>2012-07-31T08:14:56Z</time>
      </trkpt>
      <trkpt lat="47.28145" lon="4.9777">
        <ele>317.276</ele>
        <time>2012-07-31T08:15:07Z</time>
      </trkpt>
      <trkpt lat="47.28147" lon="4.97743">
        <ele>319.043</ele>
        <time>2012-07-31T08:15:18Z</time>
      </trkpt>
      <trkpt lat="47.28145" lon="4.97723">
        <ele>317.996</ele>
        <time>2012-07-31T08:15:29Z</time>
      </trkpt>
      <trkpt lat="47.28143" lon="4.97718">
        <ele>317.415</ele>
        <time>2012-07-31T08:15:40Z</time>
      </trkpt>
      <trkpt lat="47.28143" lon="4.97695">
        <ele>316.998</ele>
        <time>2012-07-31T08:15:51Z</time>
      </trkpt>
      <trkpt lat="47.28147" lon="4.97665">
        <ele>316.047</ele>
        <time>2012-07-31T08:16:02Z</time>
      </trkpt>
      <trkpt lat="47.28147" lon="4.97638">
        <ele>317.389</ele>
        <time>2012-07-31T08:16:13Z</time>
      </trkpt>
      <trkpt lat="47.28147" lon="4.97615">
        <ele>318.013</ele>
        <time>2012-07-31T08:16:24Z</time>
      </trkpt>
      <trkpt lat="47.28145" lon="4.97592">
        <ele>318.914</ele>
        <time>2012-07-31T08:16:35Z</time>
      </trkpt>
      <trkpt lat="47.28147" lon="4.97568">
        <ele>319.572</ele>
        <time>2012-07-31T08:16:46Z</time>
      </trkpt>
      <trkpt lat="47.2815" lon="4.9755">
        <ele>318.958</ele>
        <time>2012-07-31T08:16:57Z</time>
      </trkpt>
      <trkpt lat="47.28152" lon="4.97533">
        <ele>320.306</ele>
        <time>2012-07-31T08:17:08Z</time>
      </trkpt>
      <trkpt lat="47.28158" lon="4.9751">
        <ele>318.688</ele>
        <time>2012-07-31T08:17:19Z</time>
      </trkpt>
      <trkpt lat="47.28162" lon="4.97493">
        <ele>317.758</ele>
        <time>2012-07-31T08:17:30Z</time>
      </trkpt>
      <trkpt lat="47.28163" lon="4.9747">
        <ele>319.39</ele>
        <time>2012-07-31T08:17:41Z</time>
      </trkpt>
      <trkpt lat="47.2817" lon="4.97443">
        <ele>320.065</ele>
        <time>2012-07-31T08:17:52Z</time>
      </trkpt>
      <trkpt lat="47.28177" lon="4.97422">
        <ele>320.774</ele>
        <time>2012-07-31T08:18:03Z</time>
      </trkpt>
      <trkpt lat="47.28182" lon="4.97403">
        <ele>320.771</ele>
        <time>2012-07-31T08:18:14Z</time>
      </trkpt>
      <trkpt lat="47.28187" lon="4.9738">
        <ele>321.063</ele>
        <time>2012-07-31T08:18:25Z</time>
      </trkpt>
      <trkpt lat="47.28187" lon="4.9737">
        <ele>321.113</ele>
        <time>2012-07-31T08:18:36Z</time>
      </trkpt>
      <trkpt lat="47.28195" lon="4.97352">
        <ele>324.33</ele>
        <time>2012-07-31T08:18:47Z</time>
      </trkpt>
      <trkpt lat="47.28203" lon="4.97333">
        <ele>326.542</ele>
        <time>2012-07-31T08:18:58Z</time>
      </trkpt>
      <trkpt lat="47.28208" lon="4.97315">
        <ele>329.204</ele>
        <time>2012-07-31T08:19:09Z</time>
      </trkpt>
      <trkpt lat="47.28212" lon="4.97298">
        <ele>328.702</ele>
        <time>2012-07-31T08:19:20Z</time>
      </trkpt>
      <trkpt lat="47.28218" lon="4.97273">
        <ele>328.923</ele>
        <time>2012-07-31T08:19:31Z</time>
      </trkpt>
      <trkpt lat="47.28222" lon="4.97262">
        <ele>329.638</ele>
        <time>2012-07-31T08:19:42Z</time>
      </trkpt>
      <trkpt lat="47.2823" lon="4.97237">
        <ele>330.391</ele>
        <time>2012-07-31T08:19:53Z</time>
      </trkpt>
      <trkpt lat="47.28232" lon="4.97217">
        <ele>333.774</ele>
        <time>2012-07-31T08:20:04Z</time>
      </trkpt>
      <trkpt lat="47.28233" lon="4.97205">
        <ele>335.115</ele>
        <time>2012-07-31T08:20:15Z</time>
      </trkpt>
      <trkpt lat="47.28235" lon="4.97183">
        <ele>334.093</ele>
        <time>2012-07-31T08:20:26Z</time>
      </trkpt>
      <trkpt lat="47.2824" lon="4.97157">
        <ele>335.755</ele>
        <time>2012-07-31T08:20:37Z</time>
      </trkpt>
      <trkpt lat="47.28242" lon="4.9714">
        <ele>337.68</ele>
        <time>2012-07-31T08:20:48Z</time>
      </trkpt>
      <trkpt lat="47.28242" lon="4.97125">
        <ele>336.847</ele>
        <time>2012-07-31T08:20:59Z</time>
      </trkpt>
      <trkpt lat="47.28243" lon="4.97108">
        <ele>335.518</ele>
        <time>2012-07-31T08:21:10Z</time>
      </trkpt>
      <trkpt lat="47.28252" lon="4.97087">
        <ele>335.879</ele>
        <time>2012-07-31T08:21:21Z</time>
      </trkpt>
      <trkpt lat="47.28257" lon="4.97062">
        <ele>336.136</ele>
        <time>2012-07-31T08:21:32Z</time>
      </trkpt>
      <trkpt lat="47.28258" lon="4.97038">
        <ele>337.724</ele>
        <time>2012-07-31T08:21:43Z</time>
      </trkpt>
      <trkpt lat="47.28263" lon="4.9702">
        <ele>337.338</ele>
        <time>2012-07-31T08:21:54Z</time>
      </trkpt>
      <trkpt lat="47.28267" lon="4.96995">
        <ele>339.311</ele>
        <time>2012-07-31T08:22:05Z</time>
      </trkpt>
      <trkpt lat="47.28265" lon="4.96983">
        <ele>340.17</ele>
        <time>2012-07-31T08:22:16Z</time>
      </trkpt>
      <trkpt lat="47.28267" lon="4.96958">
        <ele>340.023</ele>
        <time>2012-07-31T08:22:27Z</time>
      </trkpt>
      <trkpt lat="47.2827" lon="4.96943">
        <ele>339.944</ele>
        <time>2012-07-31T08:22:38Z</time>
      </trkpt>
      <trkpt lat="47.2827" lon="4.96943">
        <ele>339.944</ele>
        <time>2012-07-31T08:22:49Z</time>
      </trkpt>
      <trkpt lat="47.2827" lon="4.96943">
        <ele>340.315</ele>
        <time>2012-07-31T08:23:00Z</time>
      </trkpt>
      <trkpt lat="47.28267" lon="4.96952">
        <ele>343.355</ele>
        <time>2012-07-31T08:23:11Z</time>
      </trkpt>
      <trkpt lat="47.28263" lon="4.96963">
        <ele>345.32</ele>
        <time>2012-07-31T08:23:22Z</time>
      </trkpt>
      <trkpt lat="47.28267" lon="4.96967">
        <ele>346.018</ele>
        <time>2012-07-31T08:23:33Z</time>
      </trkpt>
      <trkpt lat="47.28267" lon="4.96967">
        <ele>346.018</ele>
        <time>2012-07-31T08:23:44Z</time>
      </trkpt>
      <trkpt lat="47.28267" lon="4.96967">
        <ele>346.018</ele>
        <time>2012-07-31T08:23:55Z</time>
      </trkpt>
      <trkpt lat="47.28267" lon="4.96967">
        <ele>346.018</ele>
        <time>2012-07-31T08:24:06Z</time>
      </trkpt>
      <trkpt lat="47.28267" lon="4.96967">
        <ele>346.018</ele>
        <time>2012-07-31T08:24:17Z</time>
      </trkpt>
      <trkpt lat="47.2827" lon="4.96952">
        <ele>344.782</ele>
        <time>2012-07-31T08:24:28Z</time>
      </trkpt>
      <trkpt lat="47.28272" lon="4.96938">
        <ele>345.144</ele>
        <time>2012-07-31T08:24:39Z</time>
      </trkpt>
      <trkpt lat="47.28273" lon="4.96925">
        <ele>345.612</ele>
        <time>2012-07-31T08:24:50Z</time>
      </trkpt>
      <trkpt lat="47.28277" lon="4.96907">
        <ele>348.586</ele>
        <time>2012-07-31T08:25:01Z</time>
      </trkpt>
      <trkpt lat="47.28278" lon="4.96892">
        <ele>349.396</ele>
        <time>2012-07-31T08:25:12Z</time>
      </trkpt>
      <trkpt lat="47.28282" lon="4.96877">
        <ele>350.856</ele>
        <time>2012-07-31T08:25:23Z</time>
      </trkpt>
      <trkpt lat="47.28285" lon="4.96867">
        <ele>350.979</ele>
        <time>2012-07-31T08:25:34Z</time>
      </trkpt>
      <trkpt lat="47.2829" lon="4.96845">
        <ele>349.886</ele>
        <time>2012-07-31T08:25:45Z</time>
      </trkpt>
      <trkpt lat="47.283" lon="4.96813">
        <ele>350.349</ele>
        <time>2012-07-31T08:25:56Z</time>
      </trkpt>
      <trkpt lat="47.28303" lon="4.968">
        <ele>352.635</ele>
        <time>2012-07-31T08:26:07Z</time>
      </trkpt>
      <trkpt lat="47.28307" lon="4.96785">
        <ele>352.428</ele>
        <time>2012-07-31T08:26:18Z</time>
      </trkpt>
      <trkpt lat="47.28313" lon="4.96763">
        <ele>354.751</ele>
        <time>2012-07-31T08:26:29Z</time>
      </trkpt>
      <trkpt lat="47.2832" lon="4.96748">
        <ele>355.016</ele>
        <time>2012-07-31T08:26:40Z</time>
      </trkpt>
      <trkpt lat="47.28327" lon="4.96733">
        <ele>355.363</ele>
        <time>2012-07-31T08:26:51Z</time>
      </trkpt>
      <trkpt lat="47.28333" lon="4.96727">
        <ele>357.07</ele>
        <time>2012-07-31T08:27:02Z</time>
      </trkpt>
      <trkpt lat="47.28342" lon="4.96707">
        <ele>357.687</ele>
        <time>2012-07-31T08:27:13Z</time>
      </trkpt>
      <trkpt lat="47.2835" lon="4.9669">
        <ele>358.893</ele>
        <time>2012-07-31T08:27:24Z</time>
      </trkpt>
      <trkpt lat="47.28353" lon="4.96682">
        <ele>359.11</ele>
        <time>2012-07-31T08:27:35Z</time>
      </trkpt>
      <trkpt lat="47.2836" lon="4.96657">
        <ele>360.243</ele>
        <time>2012-07-31T08:27:46Z</time>
      </trkpt>
      <trkpt lat="47.28373" lon="4.96637">
        <ele>359.633</ele>
        <time>2012-07-31T08:27:57Z</time>
      </trkpt>
      <trkpt lat="47.28377" lon="4.9662">
        <ele>360.363</ele>
        <time>2012-07-31T08:28:08Z</time>
      </trkpt>
      <trkpt lat="47.28383" lon="4.96607">
        <ele>360.715</ele>
        <time>2012-07-31T08:28:19Z</time>
      </trkpt>
      <trkpt lat="47.28387" lon="4.96583">
        <ele>361.009</ele>
        <time>2012-07-31T08:28:30Z</time>
      </trkpt>
      <trkpt lat="47.2839" lon="4.96565">
        <ele>361.005</ele>
        <time>2012-07-31T08:28:41Z</time>
      </trkpt>
      <trkpt lat="47.28393" lon="4.96542">
        <ele>361.482</ele>
        <time>2012-07-31T08:28:52Z</time>
      </trkpt>
      <trkpt lat="47.28393" lon="4.96512">
        <ele>358.574</ele>
        <time>2012-07-31T08:29:03Z</time>
      </trkpt>
      <trkpt lat="47.28395" lon="4.96497">
        <ele>358.065</ele>
        <time>2012-07-31T08:29:14Z</time>
      </trkpt>
      <trkpt lat="47.28398" lon="4.96477">
        <ele>359.108</ele>
        <time>2012-07-31T08:29:25Z</time>
      </trkpt>
      <trkpt lat="47.28397" lon="4.96465">
        <ele>358.709</ele>
        <time>2012-07-31T08:29:36Z</time>
      </trkpt>
      <trkpt lat="47.28395" lon="4.96455">
        <ele>360.182</ele>
        <time>2012-07-31T08:29:47Z</time>
      </trkpt>
      <trkpt lat="47.28397" lon="4.96432">
        <ele>358.397</ele>
        <time>2012-07-31T08:29:58Z</time>
      </trkpt>
      <trkpt lat="47.284" lon="4.96405">
        <ele>358.23</ele>
        <time>2012-07-31T08:30:09Z</time>
      </trkpt>
      <trkpt lat="47.28398" lon="4.96383">
        <ele>358.628</ele>
        <time>2012-07-31T08:30:20Z</time>
      </trkpt>
      <trkpt lat="47.284" lon="4.9636">
        <ele>358.409</ele>
        <time>2012-07-31T08:30:31Z</time>
      </trkpt>
      <trkpt lat="47.284" lon="4.96348">
        <ele>361.752</ele>
        <time>2012-07-31T08:30:42Z</time>
      </trkpt>
      <trkpt lat="47.28403" lon="4.96328">
        <ele>362.86</ele>
        <time>2012-07-31T08:30:53Z</time>
      </trkpt>
      <trkpt lat="47.28403" lon="4.96315">
        <ele>363.808</ele>
        <time>2012-07-31T08:31:04Z</time>
      </trkpt>
      <trkpt lat="47.28407" lon="4.96293">
        <ele>365.911</ele>
        <time>2012-07-31T08:31:15Z</time>
      </trkpt>
      <trkpt lat="47.2841" lon="4.96278">
        <ele>366.432</ele>
        <time>2012-07-31T08:31:26Z</time>
      </trkpt>
      <trkpt lat="47.28413" lon="4.96262">
        <ele>368.428</ele>
        <time>2012-07-31T08:31:37Z</time>
      </trkpt>
      <trkpt lat="47.28418" lon="4.9624">
        <ele>371.24</ele>
        <time>2012-07-31T08:31:48Z</time>
      </trkpt>
      <trkpt lat="47.28423" lon="4.96222">
        <ele>374.621</ele>
        <time>2012-07-31T08:31:59Z</time>
      </trkpt>
      <trkpt lat="47.28428" lon="4.96207">
        <ele>376.209</ele>
        <time>2012-07-31T08:32:10Z</time>
      </trkpt>
      <trkpt lat="47.28432" lon="4.96195">
        <ele>376.664</ele>
        <time>2012-07-31T08:32:21Z</time>
      </trkpt>
      <trkpt lat="47.2844" lon="4.96153">
        <ele>381.832</ele>
        <time>2012-07-31T08:32:32Z</time>
      </trkpt>
      <trkpt lat="47.28445" lon="4.9613">
        <ele>384.608</ele>
        <time>2012-07-31T08:32:43Z</time>
      </trkpt>
      <trkpt lat="47.2845" lon="4.96108">
        <ele>387.555</ele>
        <time>2012-07-31T08:32:54Z</time>
      </trkpt>
      <trkpt lat="47.28448" lon="4.96093">
        <ele>386.051</ele>
        <time>2012-07-31T08:33:05Z</time>
      </trkpt>
      <trkpt lat="47.2845" lon="4.96077">
        <ele>387.757</ele>
        <time>2012-07-31T08:33:16Z</time>
      </trkpt>
      <trkpt lat="47.28445" lon="4.96047">
        <ele>383.564</ele>
        <time>2012-07-31T08:33:27Z</time>
      </trkpt>
      <trkpt lat="47.28443" lon="4.9602">
        <ele>381.85</ele>
        <time>2012-07-31T08:33:38Z</time>
      </trkpt>
      <trkpt lat="47.28437" lon="4.96002">
        <ele>380.166</ele>
        <time>2012-07-31T08:33:49Z</time>
      </trkpt>
      <trkpt lat="47.2843" lon="4.95977">
        <ele>376.929</ele>
        <time>2012-07-31T08:34:00Z</time>
      </trkpt>
      <trkpt lat="47.28427" lon="4.95957">
        <ele>377.878</ele>
        <time>2012-07-31T08:34:11Z</time>
      </trkpt>
      <trkpt lat="47.28423" lon="4.95933">
        <ele>376.637</ele>
        <time>2012-07-31T08:34:22Z</time>
      </trkpt>
      <trkpt lat="47.28418" lon="4.95913">
        <ele>374.887</ele>
        <time>2012-07-31T08:34:33Z</time>
      </trkpt>
      <trkpt lat="47.2841" lon="4.95897">
        <ele>372.666</ele>
        <time>2012-07-31T08:34:44Z</time>
      </trkpt>
      <trkpt lat="47.28403" lon="4.95873">
        <ele>368.889</ele>
        <time>2012-07-31T08:34:55Z</time>
      </trkpt>
      <trkpt lat="47.28398" lon="4.95855">
        <ele>368.362</ele>
        <time>2012-07-31T08:35:06Z</time>
      </trkpt>
      <trkpt lat="47.28392" lon="4.95842">
        <ele>367.442</ele>
        <time>2012-07-31T08:35:17Z</time>
      </trkpt>
      <trkpt lat="47.28387" lon="4.95827">
        <ele>368.749</ele>
        <time>2012-07-31T08:35:28Z</time>
      </trkpt>
      <trkpt lat="47.28375" lon="4.95807">
        <ele>367.943</ele>
        <time>2012-07-31T08:35:39Z</time>
      </trkpt>
      <trkpt lat="47.28367" lon="4.95793">
        <ele>368.607</ele>
        <time>2012-07-31T08:35:50Z</time>
      </trkpt>
      <trkpt lat="47.28363" lon="4.95775">
        <ele>367.072</ele>
        <time>2012-07-31T08:36:01Z</time>
      </trkpt>
      <trkpt lat="47.28355" lon="4.95757">
        <ele>366.722</ele>
        <time>2012-07-31T08:36:12Z</time>
      </trkpt>
      <trkpt lat="47.28345" lon="4.95737">
        <ele>366.18</ele>
        <time>2012-07-31T08:36:23Z</time>
      </trkpt>
      <trkpt lat="47.28338" lon="4.95718">
        <ele>366.566</ele>
        <time>2012-07-31T08:36:34Z</time>
      </trkpt>
      <trkpt lat="47.28328" lon="4.95703">
        <ele>364.393</ele>
        <time>2012-07-31T08:36:45Z</time>
      </trkpt>
      <trkpt lat="47.28322" lon="4.95682">
        <ele>365.812</ele>
        <time>2012-07-31T08:36:56Z</time>
      </trkpt>
      <trkpt lat="47.28315" lon="4.95662">
        <ele>367.387</ele>
        <time>2012-07-31T08:37:07Z</time>
      </trkpt>
      <trkpt lat="47.28308" lon="4.95643">
        <ele>366.906</ele>
        <time>2012-07-31T08:37:18Z</time>
      </trkpt>
      <trkpt lat="47.28297" lon="4.95627">
        <ele>372.069</ele>
        <time>2012-07-31T08:37:29Z</time>
      </trkpt>
      <trkpt lat="47.28285" lon="4.9561">
        <ele>370.322</ele>
        <time>2012-07-31T08:37:40Z</time>
      </trkpt>
      <trkpt lat="47.28273" lon="4.95595">
        <ele>369.634</ele>
        <time>2012-07-31T08:37:51Z</time>
      </trkpt>
      <trkpt lat="47.28262" lon="4.95575">
        <ele>369.589</ele>
        <time>2012-07-31T08:38:02Z</time>
      </trkpt>
      <trkpt lat="47.28255" lon="4.9556">
        <ele>371.306</ele>
        <time>2012-07-31T08:38:13Z</time>
      </trkpt>
      <trkpt lat="47.28243" lon="4.95537">
        <ele>369.516</ele>
        <time>2012-07-31T08:38:24Z</time>
      </trkpt>
      <trkpt lat="47.28233" lon="4.9552">
        <ele>370.073</ele>
        <time>2012-07-31T08:38:35Z</time>
      </trkpt>
      <trkpt lat="47.28227" lon="4.95505">
        <ele>372.33</ele>
        <time>2012-07-31T08:38:46Z</time>
      </trkpt>
      <trkpt lat="47.28218" lon="4.95492">
        <ele>376.217</ele>
        <time>2012-07-31T08:38:57Z</time>
      </trkpt>
      <trkpt lat="47.28218" lon="4.95473">
        <ele>379.092</ele>
        <time>2012-07-31T08:39:08Z</time>
      </trkpt>
      <trkpt lat="47.2821" lon="4.95455">
        <ele>380.296</ele>
        <time>2012-07-31T08:39:19Z</time>
      </trkpt>
      <trkpt lat="47.28205" lon="4.95433">
        <ele>380.156</ele>
        <time>2012-07-31T08:39:30Z</time>
      </trkpt>
      <trkpt lat="47.28193" lon="4.95415">
        <ele>379.486</ele>
        <time>2012-07-31T08:39:41Z</time>
      </trkpt>
      <trkpt lat="47.28188" lon="4.954">
        <ele>382.313</ele>
        <time>2012-07-31T08:39:52Z</time>
      </trkpt>
      <trkpt lat="47.28187" lon="4.95378">
        <ele>382.467</ele>
        <time>2012-07-31T08:40:03Z</time>
      </trkpt>
      <trkpt lat="47.28185" lon="4.95362">
        <ele>384.804</ele>
        <time>2012-07-31T08:40:14Z</time>
      </trkpt>
      <trkpt lat="47.28185" lon="4.9534">
        <ele>388.548</ele>
        <time>2012-07-31T08:40:25Z</time>
      </trkpt>
      <trkpt lat="47.28178" lon="4.95322">
        <ele>389.104</ele>
        <time>2012-07-31T08:40:36Z</time>
      </trkpt>
      <trkpt lat="47.2817" lon="4.95307">
        <ele>394.852</ele>
        <time>2012-07-31T08:40:47Z</time>
      </trkpt>
      <trkpt lat="47.28167" lon="4.95292">
        <ele>394.023</ele>
        <time>2012-07-31T08:40:58Z</time>
      </trkpt>
      <trkpt lat="47.28158" lon="4.95277">
        <ele>392.139</ele>
        <time>2012-07-31T08:41:09Z</time>
      </trkpt>
      <trkpt lat="47.28153" lon="4.95252">
        <ele>389.814</ele>
        <time>2012-07-31T08:41:20Z</time>
      </trkpt>
      <trkpt lat="47.28157" lon="4.95233">
        <ele>394.449</ele>
        <time>2012-07-31T08:41:31Z</time>
      </trkpt>
      <trkpt lat="47.28157" lon="4.9521">
        <ele>394.173</ele>
        <time>2012-07-31T08:41:42Z</time>
      </trkpt>
      <trkpt lat="47.28153" lon="4.95188">
        <ele>394.975</ele>
        <time>2012-07-31T08:41:53Z</time>
      </trkpt>
      <trkpt lat="47.28157" lon="4.95165">
        <ele>396.591</ele>
        <time>2012-07-31T08:42:04Z</time>
      </trkpt>
      <trkpt lat="47.28157" lon="4.95148">
        <ele>401.183</ele>
        <time>2012-07-31T08:42:15Z</time>
      </trkpt>
      <trkpt lat="47.28158" lon="4.95142">
        <ele>402.641</ele>
        <time>2012-07-31T08:42:26Z</time>
      </trkpt>
      <trkpt lat="47.2816" lon="4.95117">
        <ele>405.732</ele>
        <time>2012-07-31T08:42:37Z</time>
      </trkpt>
      <trkpt lat="47.28162" lon="4.95097">
        <ele>405.22</ele>
        <time>2012-07-31T08:42:48Z</time>
      </trkpt>
      <trkpt lat="47.28162" lon="4.95067">
        <ele>403.102</ele>
        <time>2012-07-31T08:42:59Z</time>
      </trkpt>
      <trkpt lat="47.28163" lon="4.95045">
        <ele>402.946</ele>
        <time>2012-07-31T08:43:10Z</time>
      </trkpt>
      <trkpt lat="47.28167" lon="4.95027">
        <ele>404.383</ele>
        <time>2012-07-31T08:43:21Z</time>
      </trkpt>
      <trkpt lat="47.28168" lon="4.95012">
        <ele>404.762</ele>
        <time>2012-07-31T08:43:32Z</time>
      </trkpt>
      <trkpt lat="47.28167" lon="4.94998">
        <ele>403.48</ele>
        <time>2012-07-31T08:43:43Z</time>
      </trkpt>
      <trkpt lat="47.28168" lon="4.94985">
        <ele>403.153</ele>
        <time>2012-07-31T08:43:54Z</time>
      </trkpt>
      <trkpt lat="47.28168" lon="4.94968">
        <ele>403.898</ele>
        <time>2012-07-31T08:44:05Z</time>
      </trkpt>
      <trkpt lat="47.28172" lon="4.94945">
        <ele>406.474</ele>
        <time>2012-07-31T08:44:16Z</time>
      </trkpt>
      <trkpt lat="47.28173" lon="4.94918">
        <ele>404.164</ele>
        <time>2012-07-31T08:44:27Z</time>
      </trkpt>
      <trkpt lat="47.28177" lon="4.9489">
        <ele>405.866</ele>
        <time>2012-07-31T08:44:38Z</time>
      </trkpt>
      <trkpt lat="47.2818" lon="4.94867">
        <ele>404.488</ele>
        <time>2012-07-31T08:44:49Z</time>
      </trkpt>
      <trkpt lat="47.28182" lon="4.94845">
        <ele>406.074</ele>
        <time>2012-07-31T08:45:00Z</time>
      </trkpt>
      <trkpt lat="47.28182" lon="4.9483">
        <ele>408.448</ele>
        <time>2012-07-31T08:45:11Z</time>
      </trkpt>
      <trkpt lat="47.28185" lon="4.94808">
        <ele>411.097</ele>
        <time>2012-07-31T08:45:22Z</time>
      </trkpt>
      <trkpt lat="47.2818" lon="4.94797">
        <ele>410.922</ele>
        <time>2012-07-31T08:45:33Z</time>
      </trkpt>
      <trkpt lat="47.28182" lon="4.94782">
        <ele>411.306</ele>
        <time>2012-07-31T08:45:44Z</time>
      </trkpt>
      <trkpt lat="47.28182" lon="4.94752">
        <ele>407.741</ele>
        <time>2012-07-31T08:45:55Z</time>
      </trkpt>
      <trkpt lat="47.28178" lon="4.94727">
        <ele>402.542</ele>
        <time>2012-07-31T08:46:06Z</time>
      </trkpt>
      <trkpt lat="47.28175" lon="4.94715">
        <ele>402.901</ele>
        <time>2012-07-31T08:46:17Z</time>
      </trkpt>
      <trkpt lat="47.28173" lon="4.94702">
        <ele>404.084</ele>
        <time>2012-07-31T08:46:28Z</time>
      </trkpt>
      <trkpt lat="47.28172" lon="4.94685">
        <ele>404.066</ele>
        <time>2012-07-31T08:46:39Z</time>
      </trkpt>
      <trkpt lat="47.28168" lon="4.94662">
        <ele>405.647</ele>
        <time>2012-07-31T08:46:50Z</time>
      </trkpt>
      <trkpt lat="47.28163" lon="4.9464">
        <ele>406.629</ele>
        <time>2012-07-31T08:47:01Z</time>
      </trkpt>
      <trkpt lat="47.28163" lon="4.94632">
        <ele>410.047</ele>
        <time>2012-07-31T08:47:12Z</time>
      </trkpt>
      <trkpt lat="47.28168" lon="4.9461">
        <ele>410.304</ele>
        <time>2012-07-31T08:47:23Z</time>
      </trkpt>
      <trkpt lat="47.28167" lon="4.94593">
        <ele>408.73</ele>
        <time>2012-07-31T08:47:34Z</time>
      </trkpt>
      <trkpt lat="47.28167" lon="4.94577">
        <ele>406.455</ele>
        <time>2012-07-31T08:47:45Z</time>
      </trkpt>
      <trkpt lat="47.28162" lon="4.9457">
        <ele>409.346</ele>
        <time>2012-07-31T08:47:56Z</time>
      </trkpt>
      <trkpt lat="47.28157" lon="4.94552">
        <ele>409.349</ele>
        <time>2012-07-31T08:48:07Z</time>
      </trkpt>
      <trkpt lat="47.28152" lon="4.94543">
        <ele>412.366</ele>
        <time>2012-07-31T08:48:18Z</time>
      </trkpt>
      <trkpt lat="47.28148" lon="4.94532">
        <ele>414.678</ele>
        <time>2012-07-31T08:48:29Z</time>
      </trkpt>
      <trkpt lat="47.28147" lon="4.94518">
        <ele>416.836</ele>
        <time>2012-07-31T08:48:40Z</time>
      </trkpt>
      <trkpt lat="47.28148" lon="4.94498">
        <ele>416.75</ele>
        <time>2012-07-31T08:48:51Z</time>
      </trkpt>
      <trkpt lat="47.28148" lon="4.9448">
        <ele>416.731</ele>
        <time>2012-07-31T08:49:02Z</time>
      </trkpt>
      <trkpt lat="47.28148" lon="4.94475">
        <ele>418.585</ele>
        <time>2012-07-31T08:49:13Z</time>
      </trkpt>
      <trkpt lat="47.28148" lon="4.9446">
        <ele>420.473</ele>
        <time>2012-07-31T08:49:24Z</time>
      </trkpt>
      <trkpt lat="47.28147" lon="4.94453">
        <ele>421.353</ele>
        <time>2012-07-31T08:49:35Z</time>
      </trkpt>
      <trkpt lat="47.28142" lon="4.94445">
        <ele>421.873</ele>
        <time>2012-07-31T08:49:46Z</time>
      </trkpt>
      <trkpt lat="47.2814" lon="4.94437">
        <ele>423.366</ele>
        <time>2012-07-31T08:49:57Z</time>
      </trkpt>
      <trkpt lat="47.28138" lon="4.94422">
        <ele>424.636</ele>
        <time>2012-07-31T08:50:08Z</time>
      </trkpt>
      <trkpt lat="47.28132" lon="4.94403">
        <ele>426.845</ele>
        <time>2012-07-31T08:50:19Z</time>
      </trkpt>
      <trkpt lat="47.2813" lon="4.9439">
        <ele>428.326</ele>
        <time>2012-07-31T08:50:30Z</time>
      </trkpt>
      <trkpt lat="47.2813" lon="4.9438">
        <ele>432.802</ele>
        <time>2012-07-31T08:50:41Z</time>
      </trkpt>
      <trkpt lat="47.28127" lon="4.9437">
        <ele>435.162</ele>
        <time>2012-07-31T08:50:52Z</time>
      </trkpt>
      <trkpt lat="47.2812" lon="4.94357">
        <ele>435.394</ele>
        <time>2012-07-31T08:51:03Z</time>
      </trkpt>
      <trkpt lat="47.28112" lon="4.94335">
        <ele>433.226</ele>
        <time>2012-07-31T08:51:14Z</time>
      </trkpt>
      <trkpt lat="47.28105" lon="4.94317">
        <ele>433.547</ele>
        <time>2012-07-31T08:51:25Z</time>
      </trkpt>
      <trkpt lat="47.28102" lon="4.94297">
        <ele>434.816</ele>
        <time>2012-07-31T08:51:36Z</time>
      </trkpt>
      <trkpt lat="47.28098" lon="4.9428">
        <ele>435.569</ele>
        <time>2012-07-31T08:51:47Z</time>
      </trkpt>
      <trkpt lat="47.28097" lon="4.94278">
        <ele>435.954</ele>
        <time>2012-07-31T08:51:58Z</time>
      </trkpt>
      <trkpt lat="47.28097" lon="4.94277">
        <ele>436.102</ele>
        <time>2012-07-31T08:52:09Z</time>
      </trkpt>
      <trkpt lat="47.28097" lon="4.94277">
        <ele>436.14</ele>
        <time>2012-07-31T08:52:20Z</time>
      </trkpt>
      <trkpt lat="47.28097" lon="4.94277">
        <ele>435.784</ele>
        <time>2012-07-31T08:52:31Z</time>
      </trkpt>
      <trkpt lat="47.28097" lon="4.94278">
        <ele>436.705</ele>
        <time>2012-07-31T08:52:42Z</time>
      </trkpt>
      <trkpt lat="47.28097" lon="4.94278">
        <ele>436.587</ele>
        <time>2012-07-31T08:52:53Z</time>
      </trkpt>
      <trkpt lat="47.28095" lon="4.94278">
        <ele>436.508</ele>
        <time>2012-07-31T08:53:04Z</time>
      </trkpt>
      <trkpt lat="47.28093" lon="4.94273">
        <ele>437.141</ele>
        <time>2012-07-31T08:53:15Z</time>
      </trkpt>
      <trkpt lat="47.28093" lon="4.94273">
        <ele>437.141</ele>
        <time>2012-07-31T08:53:26Z</time>
      </trkpt>
      <trkpt lat="47.28093" lon="4.94273">
        <ele>437.166</ele>
        <time>2012-07-31T08:53:37Z</time>
      </trkpt>
      <trkpt lat="47.28093" lon="4.94273">
        <ele>437.166</ele>
        <time>2012-07-31T08:53:48Z</time>
      </trkpt>
      <trkpt lat="47.28093" lon="4.94273">
        <ele>437.166</ele>
        <time>2012-07-31T08:53:59Z</time>
      </trkpt>
      <trkpt lat="47.28093" lon="4.94273">
        <ele>437.583</ele>
        <time>2012-07-31T08:54:10Z</time>
      </trkpt>
      <trkpt lat="47.28093" lon="4.94273">
        <ele>437.583</ele>
        <time>2012-07-31T08:54:21Z</time>
      </trkpt>
      <trkpt lat="47.28093" lon="4.94273">
        <ele>437.583</ele>
        <time>2012-07-31T08:54:32Z</time>
      </trkpt>
      <trkpt lat="47.2809" lon="4.9427">
        <ele>438.39</ele>
        <time>2012-07-31T08:54:43Z</time>
      </trkpt>
      <trkpt lat="47.2809" lon="4.9427">
        <ele>438.859</ele>
        <time>2012-07-31T08:54:54Z</time>
      </trkpt>
      <trkpt lat="47.2809" lon="4.94268">
        <ele>438.95</ele>
        <time>2012-07-31T08:55:05Z</time>
      </trkpt>
      <trkpt lat="47.2809" lon="4.94268">
        <ele>438.95</ele>
        <time>2012-07-31T08:55:16Z</time>
      </trkpt>
      <trkpt lat="47.28092" lon="4.94268">
        <ele>438.733</ele>
        <time>2012-07-31T08:55:27Z</time>
      </trkpt>
      <trkpt lat="47.28092" lon="4.94268">
        <ele>438.733</ele>
        <time>2012-07-31T08:55:38Z</time>
      </trkpt>
      <trkpt lat="47.28092" lon="4.94268">
        <ele>438.733</ele>
        <time>2012-07-31T08:55:49Z</time>
      </trkpt>
      <trkpt lat="47.28092" lon="4.94268">
        <ele>438.733</ele>
        <time>2012-07-31T08:56:00Z</time>
      </trkpt>
      <trkpt lat="47.28092" lon="4.94268">
        <ele>438.936</ele>
        <time>2012-07-31T08:56:11Z</time>
      </trkpt>
      <trkpt lat="47.28092" lon="4.94268">
        <ele>438.936</ele>
        <time>2012-07-31T08:56:22Z</time>
      </trkpt>
      <trkpt lat="47.28092" lon="4.94268">
        <ele>438.936</ele>
        <time>2012-07-31T08:56:33Z</time>
      </trkpt>
      <trkpt lat="47.28092" lon="4.94268">
        <ele>439.307</ele>
        <time>2012-07-31T08:56:44Z</time>
      </trkpt>
      <trkpt lat="47.28092" lon="4.94268">
        <ele>439.307</ele>
        <time>2012-07-31T08:56:55Z</time>
      </trkpt>
      <trkpt lat="47.28092" lon="4.94268">
        <ele>439.316</ele>
        <time>2012-07-31T08:57:06Z</time>
      </trkpt>
      <trkpt lat="47.28092" lon="4.94268">
        <ele>439.316</ele>
        <time>2012-07-31T08:57:17Z</time>
      </trkpt>
      <trkpt lat="47.28092" lon="4.94268">
        <ele>439.06</ele>
        <time>2012-07-31T08:57:28Z</time>
      </trkpt>
      <trkpt lat="47.28093" lon="4.94265">
        <ele>439.544</ele>
        <time>2012-07-31T08:57:39Z</time>
      </trkpt>
      <trkpt lat="47.28093" lon="4.94267">
        <ele>440.454</ele>
        <time>2012-07-31T08:57:50Z</time>
      </trkpt>
      <trkpt lat="47.28088" lon="4.94267">
        <ele>444.458</ele>
        <time>2012-07-31T08:58:01Z</time>
      </trkpt>
      <trkpt lat="47.28092" lon="4.94267">
        <ele>444.785</ele>
        <time>2012-07-31T08:58:12Z</time>
      </trkpt>
      <trkpt lat="47.28098" lon="4.94265">
        <ele>443.834</ele>
        <time>2012-07-31T08:58:23Z</time>
      </trkpt>
      <trkpt lat="47.28098" lon="4.94268">
        <ele>448.394</ele>
        <time>2012-07-31T08:58:34Z</time>
      </trkpt>
      <trkpt lat="47.28102" lon="4.94275">
        <ele>456.216</ele>
        <time>2012-07-31T08:58:45Z</time>
      </trkpt>
      <trkpt lat="47.28103" lon="4.94277">
        <ele>460.344</ele>
        <time>2012-07-31T08:58:56Z</time>
      </trkpt>
      <trkpt lat="47.28105" lon="4.94292">
        <ele>467.765</ele>
        <time>2012-07-31T08:59:07Z</time>
      </trkpt>
      <trkpt lat="47.28113" lon="4.94303">
        <ele>472.34</ele>
        <time>2012-07-31T08:59:18Z</time>
      </trkpt>
      <trkpt lat="47.28122" lon="4.94312">
        <ele>477.565</ele>
        <time>2012-07-31T08:59:29Z</time>
      </trkpt>
      <trkpt lat="47.28127" lon="4.94323">
        <ele>480.868</ele>
        <time>2012-07-31T08:59:40Z</time>
      </trkpt>
      <trkpt lat="47.2813" lon="4.94337">
        <ele>481.898</ele>
        <time>2012-07-31T08:59:51Z</time>
      </trkpt>
      <trkpt lat="47.28137" lon="4.94347">
        <ele>482.53</ele>
        <time>2012-07-31T09:00:02Z</time>
      </trkpt>
      <trkpt lat="47.28142" lon="4.94358">
        <ele>481.665</ele>
        <time>2012-07-31T09:00:13Z</time>
      </trkpt>
      <trkpt lat="47.28147" lon="4.94373">
        <ele>481.636</ele>
        <time>2012-07-31T09:00:24Z</time>
      </trkpt>
      <trkpt lat="47.2815" lon="4.94383">
        <ele>481.465</ele>
        <time>2012-07-31T09:00:35Z</time>
      </trkpt>
      <trkpt lat="47.28158" lon="4.94398">
        <ele>480.969</ele>
        <time>2012-07-31T09:00:46Z</time>
      </trkpt>
      <trkpt lat="47.28167" lon="4.94413">
        <ele>479.338</ele>
        <time>2012-07-31T09:00:57Z</time>
      </trkpt>
      <trkpt lat="47.28172" lon="4.94427">
        <ele>479.135</ele>
        <time>2012-07-31T09:01:08Z</time>
      </trkpt>
      <trkpt lat="47.28175" lon="4.94442">
        <ele>477.895</ele>
        <time>2012-07-31T09:01:19Z</time>
      </trkpt>
      <trkpt lat="47.28182" lon="4.94467">
        <ele>475.696</ele>
        <time>2012-07-31T09:01:30Z</time>
      </trkpt>
      <trkpt lat="47.28192" lon="4.9449">
        <ele>473.669</ele>
        <time>2012-07-31T09:01:41Z</time>
      </trkpt>
      <trkpt lat="47.282" lon="4.9451">
        <ele>473.864</ele>
        <time>2012-07-31T09:01:52Z</time>
      </trkpt>
      <trkpt lat="47.28207" lon="4.94528">
        <ele>472.593</ele>
        <time>2012-07-31T09:02:03Z</time>
      </trkpt>
      <trkpt lat="47.28213" lon="4.94553">
        <ele>470.019</ele>
        <time>2012-07-31T09:02:14Z</time>
      </trkpt>
      <trkpt lat="47.2822" lon="4.94568">
        <ele>469.329</ele>
        <time>2012-07-31T09:02:25Z</time>
      </trkpt>
      <trkpt lat="47.2822" lon="4.94585">
        <ele>473.308</ele>
        <time>2012-07-31T09:02:36Z</time>
      </trkpt>
      <trkpt lat="47.28225" lon="4.94597">
        <ele>472.622</ele>
        <time>2012-07-31T09:02:47Z</time>
      </trkpt>
      <trkpt lat="47.28228" lon="4.94612">
        <ele>475.304</ele>
        <time>2012-07-31T09:02:58Z</time>
      </trkpt>
      <trkpt lat="47.28232" lon="4.94635">
        <ele>474.917</ele>
        <time>2012-07-31T09:03:09Z</time>
      </trkpt>
      <trkpt lat="47.28238" lon="4.94653">
        <ele>476.115</ele>
        <time>2012-07-31T09:03:20Z</time>
      </trkpt>
      <trkpt lat="47.28242" lon="4.94662">
        <ele>476.693</ele>
        <time>2012-07-31T09:03:31Z</time>
      </trkpt>
      <trkpt lat="47.28247" lon="4.94688">
        <ele>476.759</ele>
        <time>2012-07-31T09:03:42Z</time>
      </trkpt>
      <trkpt lat="47.28248" lon="4.94713">
        <ele>475.507</ele>
        <time>2012-07-31T09:03:53Z</time>
      </trkpt>
      <trkpt lat="47.28255" lon="4.94738">
        <ele>472.566</ele>
        <time>2012-07-31T09:04:04Z</time>
      </trkpt>
      <trkpt lat="47.28262" lon="4.9476">
        <ele>473.021</ele>
        <time>2012-07-31T09:04:15Z</time>
      </trkpt>
      <trkpt lat="47.28263" lon="4.94772">
        <ele>473.041</ele>
        <time>2012-07-31T09:04:26Z</time>
      </trkpt>
      <trkpt lat="47.2827" lon="4.94808">
        <ele>470.417</ele>
        <time>2012-07-31T09:04:37Z</time>
      </trkpt>
      <trkpt lat="47.28272" lon="4.94838">
        <ele>469.139</ele>
        <time>2012-07-31T09:04:48Z</time>
      </trkpt>
      <trkpt lat="47.2827" lon="4.94853">
        <ele>471.407</ele>
        <time>2012-07-31T09:04:59Z</time>
      </trkpt>
      <trkpt lat="47.28272" lon="4.9488">
        <ele>471.58</ele>
        <time>2012-07-31T09:05:10Z</time>
      </trkpt>
      <trkpt lat="47.28278" lon="4.94902">
        <ele>470.218</ele>
        <time>2012-07-31T09:05:21Z</time>
      </trkpt>
      <trkpt lat="47.28287" lon="4.9493">
        <ele>467.08</ele>
        <time>2012-07-31T09:05:32Z</time>
      </trkpt>
      <trkpt lat="47.28293" lon="4.94957">
        <ele>465.794</ele>
        <time>2012-07-31T09:05:43Z</time>
      </trkpt>
      <trkpt lat="47.28297" lon="4.94977">
        <ele>464.276</ele>
        <time>2012-07-31T09:05:54Z</time>
      </trkpt>
      <trkpt lat="47.283" lon="4.94988">
        <ele>461.475</ele>
        <time>2012-07-31T09:06:05Z</time>
      </trkpt>
      <trkpt lat="47.28295" lon="4.95008">
        <ele>458.916</ele>
        <time>2012-07-31T09:06:16Z</time>
      </trkpt>
      <trkpt lat="47.28293" lon="4.95032">
        <ele>458.072</ele>
        <time>2012-07-31T09:06:27Z</time>
      </trkpt>
      <trkpt lat="47.28292" lon="4.9506">
        <ele>459.037</ele>
        <time>2012-07-31T09:06:38Z</time>
      </trkpt>
      <trkpt lat="47.28292" lon="4.95068">
        <ele>458.221</ele>
        <time>2012-07-31T09:06:49Z</time>
      </trkpt>
      <trkpt lat="47.2829" lon="4.95088">
        <ele>461.352</ele>
        <time>2012-07-31T09:07:00Z</time>
      </trkpt>
      <trkpt lat="47.2829" lon="4.951">
        <ele>461.63</ele>
        <time>2012-07-31T09:07:11Z</time>
      </trkpt>
      <trkpt lat="47.28292" lon="4.95115">
        <ele>462.529</ele>
        <time>2012-07-31T09:07:22Z</time>
      </trkpt>
      <trkpt lat="47.28298" lon="4.95135">
        <ele>461.022</ele>
        <time>2012-07-31T09:07:33Z</time>
      </trkpt>
      <trkpt lat="47.28302" lon="4.9515">
        <ele>463.072</ele>
        <time>2012-07-31T09:07:44Z</time>
      </trkpt>
      <trkpt lat="47.283" lon="4.9516">
        <ele>465.663</ele>
        <time>2012-07-31T09:07:55Z</time>
      </trkpt>
      <trkpt lat="47.2831" lon="4.95185">
        <ele>463.315</ele>
        <time>2012-07-31T09:08:06Z</time>
      </trkpt>
      <trkpt lat="47.28315" lon="4.95202">
        <ele>464.015</ele>
        <time>2012-07-31T09:08:17Z</time>
      </trkpt>
      <trkpt lat="47.28318" lon="4.9521">
        <ele>463.143</ele>
        <time>2012-07-31T09:08:28Z</time>
      </trkpt>
      <trkpt lat="47.28322" lon="4.95228">
        <ele>462</ele>
        <time>2012-07-31T09:08:39Z</time>
      </trkpt>
      <trkpt lat="47.28325" lon="4.95247">
        <ele>463.96</ele>
        <time>2012-07-31T09:08:50Z</time>
      </trkpt>
      <trkpt lat="47.2833" lon="4.95263">
        <ele>465.918</ele>
        <time>2012-07-31T09:09:01Z</time>
      </trkpt>
      <trkpt lat="47.28342" lon="4.95287">
        <ele>466.036</ele>
        <time>2012-07-31T09:09:12Z</time>
      </trkpt>
      <trkpt lat="47.28353" lon="4.95305">
        <ele>465.635</ele>
        <time>2012-07-31T09:09:23Z</time>
      </trkpt>
      <trkpt lat="47.28363" lon="4.95318">
        <ele>466.656</ele>
        <time>2012-07-31T09:09:34Z</time>
      </trkpt>
      <trkpt lat="47.28375" lon="4.95337">
        <ele>465.596</ele>
        <time>2012-07-31T09:09:45Z</time>
      </trkpt>
      <trkpt lat="47.28382" lon="4.95345">
        <ele>463.58</ele>
        <time>2012-07-31T09:09:56Z</time>
      </trkpt>
      <trkpt lat="47.28385" lon="4.95353">
        <ele>463.351</ele>
        <time>2012-07-31T09:10:07Z</time>
      </trkpt>
      <trkpt lat="47.28392" lon="4.95367">
        <ele>462.051</ele>
        <time>2012-07-31T09:10:18Z</time>
      </trkpt>
      <trkpt lat="47.28393" lon="4.95372">
        <ele>462.628</ele>
        <time>2012-07-31T09:10:29Z</time>
      </trkpt>
      <trkpt lat="47.28398" lon="4.95387">
        <ele>462.718</ele>
        <time>2012-07-31T09:10:40Z</time>
      </trkpt>
      <trkpt lat="47.28403" lon="4.95403">
        <ele>465.641</ele>
        <time>2012-07-31T09:10:51Z</time>
      </trkpt>
      <trkpt lat="47.28417" lon="4.95428">
        <ele>468.503</ele>
        <time>2012-07-31T09:11:02Z</time>
      </trkpt>
      <trkpt lat="47.28423" lon="4.95442">
        <ele>468.01</ele>
        <time>2012-07-31T09:11:13Z</time>
      </trkpt>
      <trkpt lat="47.28433" lon="4.9546">
        <ele>468.583</ele>
        <time>2012-07-31T09:11:24Z</time>
      </trkpt>
      <trkpt lat="47.2844" lon="4.9547">
        <ele>469.21</ele>
        <time>2012-07-31T09:11:35Z</time>
      </trkpt>
      <trkpt lat="47.28443" lon="4.95483">
        <ele>470.454</ele>
        <time>2012-07-31T09:11:46Z</time>
      </trkpt>
      <trkpt lat="47.28448" lon="4.95497">
        <ele>474.119</ele>
        <time>2012-07-31T09:11:57Z</time>
      </trkpt>
      <trkpt lat="47.28458" lon="4.95512">
        <ele>472.117</ele>
        <time>2012-07-31T09:12:08Z</time>
      </trkpt>
      <trkpt lat="47.28463" lon="4.95525">
        <ele>471.956</ele>
        <time>2012-07-31T09:12:19Z</time>
      </trkpt>
      <trkpt lat="47.28482" lon="4.95555">
        <ele>467.864</ele>
        <time>2012-07-31T09:12:30Z</time>
      </trkpt>
      <trkpt lat="47.2849" lon="4.95585">
        <ele>472.124</ele>
        <time>2012-07-31T09:12:41Z</time>
      </trkpt>
      <trkpt lat="47.28502" lon="4.95607">
        <ele>471.455</ele>
        <time>2012-07-31T09:12:52Z</time>
      </trkpt>
      <trkpt lat="47.28518" lon="4.95637">
        <ele>469.164</ele>
        <time>2012-07-31T09:13:03Z</time>
      </trkpt>
      <trkpt lat="47.28533" lon="4.9566">
        <ele>465.864</ele>
        <time>2012-07-31T09:13:14Z</time>
      </trkpt>
      <trkpt lat="47.28555" lon="4.95692">
        <ele>460.894</ele>
        <time>2012-07-31T09:13:25Z</time>
      </trkpt>
      <trkpt lat="47.28567" lon="4.95705">
        <ele>460.139</ele>
        <time>2012-07-31T09:13:36Z</time>
      </trkpt>
      <trkpt lat="47.28577" lon="4.9572">
        <ele>458.425</ele>
        <time>2012-07-31T09:13:47Z</time>
      </trkpt>
      <trkpt lat="47.28585" lon="4.95742">
        <ele>456.753</ele>
        <time>2012-07-31T09:13:58Z</time>
      </trkpt>
      <trkpt lat="47.28597" lon="4.95777">
        <ele>455.415</ele>
        <time>2012-07-31T09:14:09Z</time>
      </trkpt>
      <trkpt lat="47.28602" lon="4.95803">
        <ele>453.454</ele>
        <time>2012-07-31T09:14:20Z</time>
      </trkpt>
      <trkpt lat="47.2861" lon="4.95838">
        <ele>454.795</ele>
        <time>2012-07-31T09:14:31Z</time>
      </trkpt>
      <trkpt lat="47.28617" lon="4.9587">
        <ele>456.881</ele>
        <time>2012-07-31T09:14:42Z</time>
      </trkpt>
      <trkpt lat="47.28623" lon="4.959">
        <ele>455.335</ele>
        <time>2012-07-31T09:14:53Z</time>
      </trkpt>
      <trkpt lat="47.28625" lon="4.95925">
        <ele>455.416</ele>
        <time>2012-07-31T09:15:04Z</time>
      </trkpt>
      <trkpt lat="47.28628" lon="4.95938">
        <ele>455.522</ele>
        <time>2012-07-31T09:15:15Z</time>
      </trkpt>
      <trkpt lat="47.28628" lon="4.95953">
        <ele>454.412</ele>
        <time>2012-07-31T09:15:26Z</time>
      </trkpt>
      <trkpt lat="47.28633" lon="4.95973">
        <ele>456.982</ele>
        <time>2012-07-31T09:15:37Z</time>
      </trkpt>
      <trkpt lat="47.28637" lon="4.95993">
        <ele>458.981</ele>
        <time>2012-07-31T09:15:48Z</time>
      </trkpt>
      <trkpt lat="47.2864" lon="4.96002">
        <ele>459.584</ele>
        <time>2012-07-31T09:15:59Z</time>
      </trkpt>
      <trkpt lat="47.28642" lon="4.9602">
        <ele>459.374</ele>
        <time>2012-07-31T09:16:10Z</time>
      </trkpt>
      <trkpt lat="47.28645" lon="4.96038">
        <ele>458.77</ele>
        <time>2012-07-31T09:16:21Z</time>
      </trkpt>
      <trkpt lat="47.28652" lon="4.96055">
        <ele>460.392</ele>
        <time>2012-07-31T09:16:32Z</time>
      </trkpt>
      <trkpt lat="47.28655" lon="4.96078">
        <ele>462.111</ele>
        <time>2012-07-31T09:16:43Z</time>
      </trkpt>
      <trkpt lat="47.28662" lon="4.96097">
        <ele>462.918</ele>
        <time>2012-07-31T09:16:54Z</time>
      </trkpt>
      <trkpt lat="47.28668" lon="4.96117">
        <ele>464.963</ele>
        <time>2012-07-31T09:17:05Z</time>
      </trkpt>
      <trkpt lat="47.28665" lon="4.96142">
        <ele>462.03</ele>
        <time>2012-07-31T09:17:16Z</time>
      </trkpt>
      <trkpt lat="47.28667" lon="4.96162">
        <ele>460.919</ele>
        <time>2012-07-31T09:17:27Z</time>
      </trkpt>
      <trkpt lat="47.28662" lon="4.9618">
        <ele>460.076</ele>
        <time>2012-07-31T09:17:38Z</time>
      </trkpt>
      <trkpt lat="47.28667" lon="4.96197">
        <ele>456.73</ele>
        <time>2012-07-31T09:17:49Z</time>
      </trkpt>
      <trkpt lat="47.28668" lon="4.96215">
        <ele>455.629</ele>
        <time>2012-07-31T09:18:00Z</time>
      </trkpt>
      <trkpt lat="47.28677" lon="4.96238">
        <ele>453.219</ele>
        <time>2012-07-31T09:18:11Z</time>
      </trkpt>
      <trkpt lat="47.28682" lon="4.96252">
        <ele>451.983</ele>
        <time>2012-07-31T09:18:22Z</time>
      </trkpt>
      <trkpt lat="47.28687" lon="4.9627">
        <ele>450.391</ele>
        <time>2012-07-31T09:18:33Z</time>
      </trkpt>
      <trkpt lat="47.28693" lon="4.96297">
        <ele>450.415</ele>
        <time>2012-07-31T09:18:44Z</time>
      </trkpt>
      <trkpt lat="47.28697" lon="4.96313">
        <ele>448.815</ele>
        <time>2012-07-31T09:18:55Z</time>
      </trkpt>
      <trkpt lat="47.28698" lon="4.96323">
        <ele>444.275</ele>
        <time>2012-07-31T09:19:06Z</time>
      </trkpt>
      <trkpt lat="47.28705" lon="4.96337">
        <ele>444.258</ele>
        <time>2012-07-31T09:19:17Z</time>
      </trkpt>
      <trkpt lat="47.2871" lon="4.96352">
        <ele>444.5</ele>
        <time>2012-07-31T09:19:28Z</time>
      </trkpt>
      <trkpt lat="47.28713" lon="4.96388">
        <ele>457.179</ele>
        <time>2012-07-31T09:19:39Z</time>
      </trkpt>
      <trkpt lat="47.28722" lon="4.96443">
        <ele>484.394</ele>
        <time>2012-07-31T09:19:50Z</time>
      </trkpt>
      <trkpt lat="47.28733" lon="4.96485">
        <ele>503.21</ele>
        <time>2012-07-31T09:20:01Z</time>
      </trkpt>
      <trkpt lat="47.28737" lon="4.96513">
        <ele>510.54</ele>
        <time>2012-07-31T09:20:12Z</time>
      </trkpt>
      <trkpt lat="47.28738" lon="4.96543">
        <ele>516.794</ele>
        <time>2012-07-31T09:20:23Z</time>
      </trkpt>
      <trkpt lat="47.28738" lon="4.96572">
        <ele>520.302</ele>
        <time>2012-07-31T09:20:34Z</time>
      </trkpt>
      <trkpt lat="47.28737" lon="4.96597">
        <ele>522.312</ele>
        <time>2012-07-31T09:20:45Z</time>
      </trkpt>
      <trkpt lat="47.28737" lon="4.96602">
        <ele>522.539</ele>
        <time>2012-07-31T09:20:56Z</time>
      </trkpt>
      <trkpt lat="47.28738" lon="4.96603">
        <ele>521.885</ele>
        <time>2012-07-31T09:21:07Z</time>
      </trkpt>
      <trkpt lat="47.28743" lon="4.96603">
        <ele>521.545</ele>
        <time>2012-07-31T09:21:18Z</time>
      </trkpt>
      <trkpt lat="47.28748" lon="4.96603">
        <ele>521.044</ele>
        <time>2012-07-31T09:21:29Z</time>
      </trkpt>
      <trkpt lat="47.28755" lon="4.96598">
        <ele>516.808</ele>
        <time>2012-07-31T09:21:40Z</time>
      </trkpt>
      <trkpt lat="47.28762" lon="4.96595">
        <ele>512.593</ele>
        <time>2012-07-31T09:21:51Z</time>
      </trkpt>
      <trkpt lat="47.2877" lon="4.96597">
        <ele>508.364</ele>
        <time>2012-07-31T09:22:02Z</time>
      </trkpt>
      <trkpt lat="47.28773" lon="4.96593">
        <ele>502.551</ele>
        <time>2012-07-31T09:22:13Z</time>
      </trkpt>
      <trkpt lat="47.28777" lon="4.96583">
        <ele>489.796</ele>
        <time>2012-07-31T09:22:24Z</time>
      </trkpt>
      <trkpt lat="47.28782" lon="4.96573">
        <ele>477.862</ele>
        <time>2012-07-31T09:22:35Z</time>
      </trkpt>
      <trkpt lat="47.28788" lon="4.96572">
        <ele>474.573</ele>
        <time>2012-07-31T09:22:46Z</time>
      </trkpt>
      <trkpt lat="47.28797" lon="4.96572">
        <ele>475.992</ele>
        <time>2012-07-31T09:22:57Z</time>
      </trkpt>
      <trkpt lat="47.288" lon="4.96573">
        <ele>474.47</ele>
        <time>2012-07-31T09:23:08Z</time>
      </trkpt>
      <trkpt lat="47.28807" lon="4.96575">
        <ele>476.057</ele>
        <time>2012-07-31T09:23:19Z</time>
      </trkpt>
      <trkpt lat="47.28817" lon="4.96573">
        <ele>477.5</ele>
        <time>2012-07-31T09:23:30Z</time>
      </trkpt>
      <trkpt lat="47.2883" lon="4.96582">
        <ele>477.72</ele>
        <time>2012-07-31T09:23:41Z</time>
      </trkpt>
      <trkpt lat="47.28843" lon="4.96587">
        <ele>477.658</ele>
        <time>2012-07-31T09:23:52Z</time>
      </trkpt>
      <trkpt lat="47.28857" lon="4.96588">
        <ele>476.853</ele>
        <time>2012-07-31T09:24:03Z</time>
      </trkpt>
      <trkpt lat="47.28867" lon="4.96592">
        <ele>477.027</ele>
        <time>2012-07-31T09:24:14Z</time>
      </trkpt>
      <trkpt lat="47.28882" lon="4.96592">
        <ele>477.231</ele>
        <time>2012-07-31T09:24:25Z</time>
      </trkpt>
      <trkpt lat="47.28895" lon="4.9659">
        <ele>476.385</ele>
        <time>2012-07-31T09:24:36Z</time>
      </trkpt>
      <trkpt lat="47.28907" lon="4.96593">
        <ele>474.362</ele>
        <time>2012-07-31T09:24:47Z</time>
      </trkpt>
      <trkpt lat="47.2892" lon="4.96598">
        <ele>471.429</ele>
        <time>2012-07-31T09:24:58Z</time>
      </trkpt>
      <trkpt lat="47.28933" lon="4.96592">
        <ele>446.21</ele>
        <time>2012-07-31T09:25:09Z</time>
      </trkpt>
      <trkpt lat="47.28948" lon="4.96577">
        <ele>414.909</ele>
        <time>2012-07-31T09:25:20Z</time>
      </trkpt>
      <trkpt lat="47.2896" lon="4.96582">
        <ele>416.511</ele>
        <time>2012-07-31T09:25:31Z</time>
      </trkpt>
      <trkpt lat="47.28973" lon="4.9659">
        <ele>420.183</ele>
        <time>2012-07-31T09:25:42Z</time>
      </trkpt>
      <trkpt lat="47.28993" lon="4.96598">
        <ele>422.828</ele>
        <time>2012-07-31T09:25:53Z</time>
      </trkpt>
      <trkpt lat="47.29008" lon="4.96612">
        <ele>423.666</ele>
        <time>2012-07-31T09:26:04Z</time>
      </trkpt>
      <trkpt lat="47.29023" lon="4.96615">
        <ele>414.978</ele>
        <time>2012-07-31T09:26:15Z</time>
      </trkpt>
      <trkpt lat="47.2904" lon="4.96625">
        <ele>415.154</ele>
        <time>2012-07-31T09:26:26Z</time>
      </trkpt>
      <trkpt lat="47.29072" lon="4.96625">
        <ele>407.774</ele>
        <time>2012-07-31T09:26:37Z</time>
      </trkpt>
      <trkpt lat="47.29077" lon="4.96617">
        <ele>394.223</ele>
        <time>2012-07-31T09:26:48Z</time>
      </trkpt>
      <trkpt lat="47.29083" lon="4.9662">
        <ele>387.33</ele>
        <time>2012-07-31T09:26:59Z</time>
      </trkpt>
      <trkpt lat="47.29088" lon="4.9661">
        <ele>373.017</ele>
        <time>2012-07-31T09:27:10Z</time>
      </trkpt>
      <trkpt lat="47.291" lon="4.96613">
        <ele>367.574</ele>
        <time>2012-07-31T09:27:21Z</time>
      </trkpt>
      <trkpt lat="47.29107" lon="4.96618">
        <ele>366.771</ele>
        <time>2012-07-31T09:27:32Z</time>
      </trkpt>
      <trkpt lat="47.29113" lon="4.96617">
        <ele>347.296</ele>
        <time>2012-07-31T09:27:43Z</time>
      </trkpt>
      <trkpt lat="47.29128" lon="4.96633">
        <ele>345.707</ele>
        <time>2012-07-31T09:27:54Z</time>
      </trkpt>
      <trkpt lat="47.29137" lon="4.96632">
        <ele>335.354</ele>
        <time>2012-07-31T09:28:05Z</time>
      </trkpt>
      <trkpt lat="47.29145" lon="4.96632">
        <ele>326.272</ele>
        <time>2012-07-31T09:28:16Z</time>
      </trkpt>
      <trkpt lat="47.2916" lon="4.96653">
        <ele>323.769</ele>
        <time>2012-07-31T09:28:27Z</time>
      </trkpt>
      <trkpt lat="47.2917" lon="4.96673">
        <ele>329.622</ele>
        <time>2012-07-31T09:28:38Z</time>
      </trkpt>
      <trkpt lat="47.2918" lon="4.96685">
        <ele>319.329</ele>
        <time>2012-07-31T09:28:49Z</time>
      </trkpt>
      <trkpt lat="47.29187" lon="4.96677">
        <ele>303.164</ele>
        <time>2012-07-31T09:29:00Z</time>
      </trkpt>
      <trkpt lat="47.29193" lon="4.96683">
        <ele>303.8</ele>
        <time>2012-07-31T09:29:11Z</time>
      </trkpt>
      <trkpt lat="47.29203" lon="4.96688">
        <ele>304.228</ele>
        <time>2012-07-31T09:29:22Z</time>
      </trkpt>
      <trkpt lat="47.29223" lon="4.967">
        <ele>304.989</ele>
        <time>2012-07-31T09:29:33Z</time>
      </trkpt>
      <trkpt lat="47.29248" lon="4.96715">
        <ele>314.891</ele>
        <time>2012-07-31T09:29:44Z</time>
      </trkpt>
      <trkpt lat="47.29272" lon="4.96723">
        <ele>324.304</ele>
        <time>2012-07-31T09:29:55Z</time>
      </trkpt>
      <trkpt lat="47.29293" lon="4.96725">
        <ele>333.561</ele>
        <time>2012-07-31T09:30:06Z</time>
      </trkpt>
      <trkpt lat="47.29307" lon="4.96725">
        <ele>339.095</ele>
        <time>2012-07-31T09:30:17Z</time>
      </trkpt>
      <trkpt lat="47.29317" lon="4.9672">
        <ele>341.74</ele>
        <time>2012-07-31T09:30:28Z</time>
      </trkpt>
      <trkpt lat="47.29335" lon="4.96727">
        <ele>345.236</ele>
        <time>2012-07-31T09:30:39Z</time>
      </trkpt>
      <trkpt lat="47.29343" lon="4.9673">
        <ele>350.154</ele>
        <time>2012-07-31T09:30:50Z</time>
      </trkpt>
      <trkpt lat="47.29348" lon="4.9673">
        <ele>353.591</ele>
        <time>2012-07-31T09:31:01Z</time>
      </trkpt>
      <trkpt lat="47.2935" lon="4.96725">
        <ele>355.631</ele>
        <time>2012-07-31T09:31:12Z</time>
      </trkpt>
      <trkpt lat="47.29357" lon="4.9672">
        <ele>355.819</ele>
        <time>2012-07-31T09:31:23Z</time>
      </trkpt>
      <trkpt lat="47.29365" lon="4.96717">
        <ele>355.78</ele>
        <time>2012-07-31T09:31:34Z</time>
      </trkpt>
      <trkpt lat="47.2937" lon="4.96708">
        <ele>356.528</ele>
        <time>2012-07-31T09:31:45Z</time>
      </trkpt>
      <trkpt lat="47.29377" lon="4.96705">
        <ele>358.458</ele>
        <time>2012-07-31T09:31:56Z</time>
      </trkpt>
      <trkpt lat="47.29382" lon="4.96703">
        <ele>362.091</ele>
        <time>2012-07-31T09:32:07Z</time>
      </trkpt>
      <trkpt lat="47.29383" lon="4.96713">
        <ele>362.039</ele>
        <time>2012-07-31T09:32:18Z</time>
      </trkpt>
      <trkpt lat="47.29392" lon="4.96722">
        <ele>361.401</ele>
        <time>2012-07-31T09:32:29Z</time>
      </trkpt>
      <trkpt lat="47.29395" lon="4.96723">
        <ele>361.15</ele>
        <time>2012-07-31T09:32:40Z</time>
      </trkpt>
      <trkpt lat="47.29395" lon="4.96725">
        <ele>359.481</ele>
        <time>2012-07-31T09:32:51Z</time>
      </trkpt>
      <trkpt lat="47.294" lon="4.96727">
        <ele>398</ele>
        <time>2012-07-31T09:33:02Z</time>
      </trkpt>
      <trkpt lat="47.29402" lon="4.96723">
        <ele>346.03</ele>
        <time>2012-07-31T09:33:13Z</time>
      </trkpt>
      <trkpt lat="47.29405" lon="4.9672">
        <ele>340.077</ele>
        <time>2012-07-31T09:33:24Z</time>
      </trkpt>
      <trkpt lat="47.29408" lon="4.96718">
        <ele>335.93</ele>
        <time>2012-07-31T09:33:35Z</time>
      </trkpt>
      <trkpt lat="47.29412" lon="4.96717">
        <ele>327.247</ele>
        <time>2012-07-31T09:33:46Z</time>
      </trkpt>
      <trkpt lat="47.29412" lon="4.96712">
        <ele>312.267</ele>
        <time>2012-07-31T09:33:57Z</time>
      </trkpt>
      <trkpt lat="47.2941" lon="4.96705">
        <ele>296.923</ele>
        <time>2012-07-31T09:34:08Z</time>
      </trkpt>
      <trkpt lat="47.29413" lon="4.967">
        <ele>289.992</ele>
        <time>2012-07-31T09:34:19Z</time>
      </trkpt>
      <trkpt lat="47.29413" lon="4.967">
        <ele>288.669</ele>
        <time>2012-07-31T09:34:30Z</time>
      </trkpt>
      <trkpt lat="47.29413" lon="4.96698">
        <ele>285.136</ele>
        <time>2012-07-31T09:34:41Z</time>
      </trkpt>
      <trkpt lat="47.29413" lon="4.96697">
        <ele>282.862</ele>
        <time>2012-07-31T09:34:52Z</time>
      </trkpt>
      <trkpt lat="47.29413" lon="4.96697">
        <ele>282.862</ele>
        <time>2012-07-31T09:35:03Z</time>
      </trkpt>
      <trkpt lat="47.29413" lon="4.96697">
        <ele>280.723</ele>
        <time>2012-07-31T09:35:14Z</time>
      </trkpt>
      <trkpt lat="47.29413" lon="4.96697">
        <ele>280.723</ele>
        <time>2012-07-31T09:35:25Z</time>
      </trkpt>
      <trkpt lat="47.29415" lon="4.96697">
        <ele>279.648</ele>
        <time>2012-07-31T09:35:36Z</time>
      </trkpt>
      <trkpt lat="47.29415" lon="4.96697">
        <ele>279.648</ele>
        <time>2012-07-31T09:35:47Z</time>
      </trkpt>
      <trkpt lat="47.29415" lon="4.96692">
        <ele>270.696</ele>
        <time>2012-07-31T09:35:58Z</time>
      </trkpt>
      <trkpt lat="47.29418" lon="4.96692">
        <ele>266.412</ele>
        <time>2012-07-31T09:36:09Z</time>
      </trkpt>
      <trkpt lat="47.29423" lon="4.9669">
        <ele>261.358</ele>
        <time>2012-07-31T09:36:20Z</time>
      </trkpt>
      <trkpt lat="47.29432" lon="4.96682">
        <ele>250</ele>
        <time>2012-07-31T09:36:31Z</time>
      </trkpt>
      <trkpt lat="47.29433" lon="4.96672">
        <ele>250</ele>
        <time>2012-07-31T09:36:42Z</time>
      </trkpt>
      <trkpt lat="47.29433" lon="4.96663">
        <ele>250</ele>
        <time>2012-07-31T09:36:53Z</time>
      </trkpt>
      <trkpt lat="47.29433" lon="4.96652">
        <ele>250</ele>
        <time>2012-07-31T09:37:04Z</time>
      </trkpt>
      <trkpt lat="47.29438" lon="4.96643">
        <ele>250</ele>
        <time>2012-07-31T09:37:15Z</time>
      </trkpt>
      <trkpt lat="47.29442" lon="4.96623">
        <ele>250</ele>
        <time>2012-07-31T09:37:26Z</time>
      </trkpt>
      <trkpt lat="47.29445" lon="4.9661">
        <ele>250</ele>
        <time>2012-07-31T09:37:37Z</time>
      </trkpt>
      <trkpt lat="47.29448" lon="4.96597">
        <ele>250</ele>
        <time>2012-07-31T09:37:48Z</time>
      </trkpt>
      <trkpt lat="47.29453" lon="4.96573">
        <ele>250</ele>
        <time>2012-07-31T09:37:59Z</time>
      </trkpt>
      <trkpt lat="47.29458" lon="4.96562">
        <ele>250</ele>
        <time>2012-07-31T09:38:10Z</time>
      </trkpt>
      <trkpt lat="47.29463" lon="4.96545">
        <ele>250</ele>
        <time>2012-07-31T09:38:21Z</time>
      </trkpt>
      <trkpt lat="47.29468" lon="4.96535">
        <ele>250</ele>
        <time>2012-07-31T09:38:32Z</time>
      </trkpt>
      <trkpt lat="47.2947" lon="4.96518">
        <ele>250</ele>
        <time>2012-07-31T09:38:43Z</time>
      </trkpt>
      <trkpt lat="47.29473" lon="4.9651">
        <ele>250</ele>
        <time>2012-07-31T09:38:54Z</time>
      </trkpt>
      <trkpt lat="47.29482" lon="4.96495">
        <ele>250</ele>
        <time>2012-07-31T09:39:05Z</time>
      </trkpt>
      <trkpt lat="47.29487" lon="4.9648">
        <ele>250</ele>
        <time>2012-07-31T09:39:16Z</time>
      </trkpt>
      <trkpt lat="47.29488" lon="4.96465">
        <ele>250</ele>
        <time>2012-07-31T09:39:27Z</time>
      </trkpt>
      <trkpt lat="47.29492" lon="4.96445">
        <ele>250</ele>
        <time>2012-07-31T09:39:38Z</time>
      </trkpt>
      <trkpt lat="47.29493" lon="4.96423">
        <ele>250</ele>
        <time>2012-07-31T09:39:49Z</time>
      </trkpt>
      <trkpt lat="47.2949" lon="4.96398">
        <ele>250</ele>
        <time>2012-07-31T09:40:00Z</time>
      </trkpt>
      <trkpt lat="47.29492" lon="4.96383">
        <ele>250</ele>
        <time>2012-07-31T09:40:11Z</time>
      </trkpt>
      <trkpt lat="47.29493" lon="4.9638">
        <ele>250</ele>
        <time>2012-07-31T09:40:22Z</time>
      </trkpt>
      <trkpt lat="47.29495" lon="4.96373">
        <ele>250</ele>
        <time>2012-07-31T09:40:33Z</time>
      </trkpt>
      <trkpt lat="47.295" lon="4.96352">
        <ele>250</ele>
        <time>2012-07-31T09:40:44Z</time>
      </trkpt>
      <trkpt lat="47.29503" lon="4.9631">
        <ele>250</ele>
        <time>2012-07-31T09:40:55Z</time>
      </trkpt>
      <trkpt lat="47.295" lon="4.96273">
        <ele>250</ele>
        <time>2012-07-31T09:41:06Z</time>
      </trkpt>
      <trkpt lat="47.29503" lon="4.96217">
        <ele>250</ele>
        <time>2012-07-31T09:41:17Z</time>
      </trkpt>
      <trkpt lat="47.2951" lon="4.96177">
        <ele>250</ele>
        <time>2012-07-31T09:41:28Z</time>
      </trkpt>
      <trkpt lat="47.29508" lon="4.96135">
        <ele>250</ele>
        <time>2012-07-31T09:41:39Z</time>
      </trkpt>
      <trkpt lat="47.29507" lon="4.96052">
        <ele>250</ele>
        <time>2012-07-31T09:41:50Z</time>
      </trkpt>
      <trkpt lat="47.29502" lon="4.95975">
        <ele>250</ele>
        <time>2012-07-31T09:42:01Z</time>
      </trkpt>
      <trkpt lat="47.29498" lon="4.959">
        <ele>250</ele>
        <time>2012-07-31T09:42:12Z</time>
      </trkpt>
      <trkpt lat="47.29497" lon="4.9583">
        <ele>250</ele>
        <time>2012-07-31T09:42:23Z</time>
      </trkpt>
      <trkpt lat="47.29242" lon="4.97548">
        <ele>410.66</ele>
        <time>2012-07-31T09:48:50Z</time>
      </trkpt>
      <trkpt lat="47.29242" lon="4.9756">
        <ele>417.151</ele>
        <time>2012-07-31T09:49:01Z</time>
      </trkpt>
      <trkpt lat="47.29243" lon="4.97587">
        <ele>411.16</ele>
        <time>2012-07-31T09:49:12Z</time>
      </trkpt>
      <trkpt lat="47.29245" lon="4.97613">
        <ele>401.786</ele>
        <time>2012-07-31T09:49:23Z</time>
      </trkpt>
      <trkpt lat="47.2925" lon="4.97633">
        <ele>401.466</ele>
        <time>2012-07-31T09:49:34Z</time>
      </trkpt>
      <trkpt lat="47.29257" lon="4.97653">
        <ele>398.153</ele>
        <time>2012-07-31T09:49:45Z</time>
      </trkpt>
      <trkpt lat="47.29267" lon="4.97675">
        <ele>395.621</ele>
        <time>2012-07-31T09:49:56Z</time>
      </trkpt>
      <trkpt lat="47.2927" lon="4.97692">
        <ele>395.072</ele>
        <time>2012-07-31T09:50:07Z</time>
      </trkpt>
      <trkpt lat="47.29283" lon="4.97708">
        <ele>395.638</ele>
        <time>2012-07-31T09:50:18Z</time>
      </trkpt>
      <trkpt lat="47.29297" lon="4.97728">
        <ele>395.362</ele>
        <time>2012-07-31T09:50:29Z</time>
      </trkpt>
      <trkpt lat="47.29305" lon="4.97738">
        <ele>395.451</ele>
        <time>2012-07-31T09:50:40Z</time>
      </trkpt>
      <trkpt lat="47.29308" lon="4.9775">
        <ele>392.179</ele>
        <time>2012-07-31T09:50:51Z</time>
      </trkpt>
      <trkpt lat="47.29315" lon="4.9776">
        <ele>392.595</ele>
        <time>2012-07-31T09:51:02Z</time>
      </trkpt>
      <trkpt lat="47.29317" lon="4.97765">
        <ele>391.787</ele>
        <time>2012-07-31T09:51:13Z</time>
      </trkpt>
      <trkpt lat="47.29318" lon="4.97775">
        <ele>390.835</ele>
        <time>2012-07-31T09:51:24Z</time>
      </trkpt>
      <trkpt lat="47.29322" lon="4.97785">
        <ele>392.091</ele>
        <time>2012-07-31T09:51:35Z</time>
      </trkpt>
      <trkpt lat="47.29325" lon="4.97793">
        <ele>391.588</ele>
        <time>2012-07-31T09:51:46Z</time>
      </trkpt>
      <trkpt lat="47.29323" lon="4.97802">
        <ele>391.029</ele>
        <time>2012-07-31T09:51:57Z</time>
      </trkpt>
      <trkpt lat="47.29322" lon="4.97812">
        <ele>372.5</ele>
        <time>2012-07-31T09:52:08Z</time>
      </trkpt>
      <trkpt lat="47.2932" lon="4.97822">
        <ele>391.663</ele>
        <time>2012-07-31T09:52:19Z</time>
      </trkpt>
      <trkpt lat="47.29313" lon="4.97842">
        <ele>391.74</ele>
        <time>2012-07-31T09:52:30Z</time>
      </trkpt>
      <trkpt lat="47.29308" lon="4.97847">
        <ele>393.916</ele>
        <time>2012-07-31T09:52:41Z</time>
      </trkpt>
      <trkpt lat="47.293" lon="4.97845">
        <ele>394.162</ele>
        <time>2012-07-31T09:52:52Z</time>
      </trkpt>
      <trkpt lat="47.29292" lon="4.97847">
        <ele>392.765</ele>
        <time>2012-07-31T09:53:03Z</time>
      </trkpt>
      <trkpt lat="47.2928" lon="4.97838">
        <ele>392.821</ele>
        <time>2012-07-31T09:53:14Z</time>
      </trkpt>
      <trkpt lat="47.29267" lon="4.9784">
        <ele>393.335</ele>
        <time>2012-07-31T09:53:25Z</time>
      </trkpt>
      <trkpt lat="47.29253" lon="4.97842">
        <ele>392.81</ele>
        <time>2012-07-31T09:53:36Z</time>
      </trkpt>
      <trkpt lat="47.2924" lon="4.97842">
        <ele>390.034</ele>
        <time>2012-07-31T09:53:47Z</time>
      </trkpt>
      <trkpt lat="47.29223" lon="4.9784">
        <ele>390.098</ele>
        <time>2012-07-31T09:53:58Z</time>
      </trkpt>
      <trkpt lat="47.29212" lon="4.9784">
        <ele>390.236</ele>
        <time>2012-07-31T09:54:09Z</time>
      </trkpt>
      <trkpt lat="47.29197" lon="4.9784">
        <ele>389.981</ele>
        <time>2012-07-31T09:54:20Z</time>
      </trkpt>
      <trkpt lat="47.29182" lon="4.97845">
        <ele>389.994</ele>
        <time>2012-07-31T09:54:31Z</time>
      </trkpt>
      <trkpt lat="47.29172" lon="4.97858">
        <ele>388.497</ele>
        <time>2012-07-31T09:54:42Z</time>
      </trkpt>
      <trkpt lat="47.29167" lon="4.97878">
        <ele>387.096</ele>
        <time>2012-07-31T09:54:53Z</time>
      </trkpt>
      <trkpt lat="47.2917" lon="4.97895">
        <ele>385.426</ele>
        <time>2012-07-31T09:55:04Z</time>
      </trkpt>
      <trkpt lat="47.29175" lon="4.9791">
        <ele>385.483</ele>
        <time>2012-07-31T09:55:15Z</time>
      </trkpt>
      <trkpt lat="47.2918" lon="4.97925">
        <ele>383.79</ele>
        <time>2012-07-31T09:55:26Z</time>
      </trkpt>
      <trkpt lat="47.29187" lon="4.9794">
        <ele>383.916</ele>
        <time>2012-07-31T09:55:37Z</time>
      </trkpt>
      <trkpt lat="47.29195" lon="4.97953">
        <ele>384.851</ele>
        <time>2012-07-31T09:55:48Z</time>
      </trkpt>
      <trkpt lat="47.292" lon="4.97968">
        <ele>385.072</ele>
        <time>2012-07-31T09:55:59Z</time>
      </trkpt>
      <trkpt lat="47.29207" lon="4.97987">
        <ele>385.606</ele>
        <time>2012-07-31T09:56:10Z</time>
      </trkpt>
      <trkpt lat="47.29217" lon="4.98002">
        <ele>384.879</ele>
        <time>2012-07-31T09:56:21Z</time>
      </trkpt>
      <trkpt lat="47.29227" lon="4.98017">
        <ele>384.574</ele>
        <time>2012-07-31T09:56:32Z</time>
      </trkpt>
      <trkpt lat="47.29237" lon="4.98033">
        <ele>384.443</ele>
        <time>2012-07-31T09:56:43Z</time>
      </trkpt>
      <trkpt lat="47.29248" lon="4.98047">
        <ele>385.626</ele>
        <time>2012-07-31T09:56:54Z</time>
      </trkpt>
      <trkpt lat="47.29255" lon="4.98062">
        <ele>387.457</ele>
        <time>2012-07-31T09:57:05Z</time>
      </trkpt>
      <trkpt lat="47.29257" lon="4.98068">
        <ele>386.082</ele>
        <time>2012-07-31T09:57:16Z</time>
      </trkpt>
      <trkpt lat="47.29257" lon="4.98077">
        <ele>383.539</ele>
        <time>2012-07-31T09:57:27Z</time>
      </trkpt>
      <trkpt lat="47.29253" lon="4.98088">
        <ele>380.306</ele>
        <time>2012-07-31T09:57:38Z</time>
      </trkpt>
      <trkpt lat="47.29248" lon="4.98105">
        <ele>377.85</ele>
        <time>2012-07-31T09:57:49Z</time>
      </trkpt>
      <trkpt lat="47.29243" lon="4.9812">
        <ele>378.304</ele>
        <time>2012-07-31T09:58:00Z</time>
      </trkpt>
      <trkpt lat="47.29242" lon="4.98128">
        <ele>377.525</ele>
        <time>2012-07-31T09:58:11Z</time>
      </trkpt>
      <trkpt lat="47.29235" lon="4.98138">
        <ele>377.332</ele>
        <time>2012-07-31T09:58:22Z</time>
      </trkpt>
      <trkpt lat="47.29225" lon="4.98152">
        <ele>378.096</ele>
        <time>2012-07-31T09:58:33Z</time>
      </trkpt>
      <trkpt lat="47.29217" lon="4.98157">
        <ele>378.666</ele>
        <time>2012-07-31T09:58:44Z</time>
      </trkpt>
      <trkpt lat="47.29203" lon="4.98162">
        <ele>380.241</ele>
        <time>2012-07-31T09:58:55Z</time>
      </trkpt>
      <trkpt lat="47.29193" lon="4.98167">
        <ele>381.356</ele>
        <time>2012-07-31T09:59:06Z</time>
      </trkpt>
      <trkpt lat="47.29183" lon="4.98167">
        <ele>381.456</ele>
        <time>2012-07-31T09:59:17Z</time>
      </trkpt>
      <trkpt lat="47.29167" lon="4.98167">
        <ele>381.122</ele>
        <time>2012-07-31T09:59:28Z</time>
      </trkpt>
      <trkpt lat="47.29155" lon="4.98167">
        <ele>380.987</ele>
        <time>2012-07-31T09:59:39Z</time>
      </trkpt>
      <trkpt lat="47.29143" lon="4.98165">
        <ele>382.537</ele>
        <time>2012-07-31T09:59:50Z</time>
      </trkpt>
      <trkpt lat="47.29137" lon="4.98167">
        <ele>382.446</ele>
        <time>2012-07-31T10:00:01Z</time>
      </trkpt>
      <trkpt lat="47.29128" lon="4.9817">
        <ele>382.236</ele>
        <time>2012-07-31T10:00:12Z</time>
      </trkpt>
      <trkpt lat="47.29113" lon="4.98175">
        <ele>383.718</ele>
        <time>2012-07-31T10:00:23Z</time>
      </trkpt>
      <trkpt lat="47.29102" lon="4.98173">
        <ele>374.5</ele>
        <time>2012-07-31T10:00:34Z</time>
      </trkpt>
      <trkpt lat="47.29092" lon="4.98168">
        <ele>387.862</ele>
        <time>2012-07-31T10:00:45Z</time>
      </trkpt>
      <trkpt lat="47.2908" lon="4.98173">
        <ele>390.262</ele>
        <time>2012-07-31T10:00:56Z</time>
      </trkpt>
      <trkpt lat="47.29073" lon="4.98173">
        <ele>392.779</ele>
        <time>2012-07-31T10:01:07Z</time>
      </trkpt>
      <trkpt lat="47.29073" lon="4.98173">
        <ele>392.747</ele>
        <time>2012-07-31T10:01:18Z</time>
      </trkpt>
      <trkpt lat="47.29073" lon="4.98173">
        <ele>392.747</ele>
        <time>2012-07-31T10:01:29Z</time>
      </trkpt>
      <trkpt lat="47.29072" lon="4.98172">
        <ele>392.716</ele>
        <time>2012-07-31T10:01:40Z</time>
      </trkpt>
      <trkpt lat="47.29072" lon="4.98172">
        <ele>392.716</ele>
        <time>2012-07-31T10:01:51Z</time>
      </trkpt>
      <trkpt lat="47.29063" lon="4.98167">
        <ele>393.302</ele>
        <time>2012-07-31T10:02:02Z</time>
      </trkpt>
      <trkpt lat="47.29052" lon="4.9816">
        <ele>393.744</ele>
        <time>2012-07-31T10:02:13Z</time>
      </trkpt>
      <trkpt lat="47.29038" lon="4.9815">
        <ele>393.691</ele>
        <time>2012-07-31T10:02:24Z</time>
      </trkpt>
      <trkpt lat="47.29025" lon="4.98143">
        <ele>391.805</ele>
        <time>2012-07-31T10:02:35Z</time>
      </trkpt>
      <trkpt lat="47.29007" lon="4.98138">
        <ele>391.405</ele>
        <time>2012-07-31T10:02:46Z</time>
      </trkpt>
      <trkpt lat="47.2899" lon="4.98142">
        <ele>391.622</ele>
        <time>2012-07-31T10:02:57Z</time>
      </trkpt>
      <trkpt lat="47.28975" lon="4.98137">
        <ele>391.43</ele>
        <time>2012-07-31T10:03:08Z</time>
      </trkpt>
      <trkpt lat="47.2896" lon="4.98135">
        <ele>392.073</ele>
        <time>2012-07-31T10:03:19Z</time>
      </trkpt>
      <trkpt lat="47.28943" lon="4.98138">
        <ele>392.514</ele>
        <time>2012-07-31T10:03:30Z</time>
      </trkpt>
      <trkpt lat="47.2893" lon="4.98152">
        <ele>378.9</ele>
        <time>2012-07-31T10:03:41Z</time>
      </trkpt>
      <trkpt lat="47.28918" lon="4.98168">
        <ele>393.097</ele>
        <time>2012-07-31T10:03:52Z</time>
      </trkpt>
      <trkpt lat="47.28908" lon="4.98192">
        <ele>393.301</ele>
        <time>2012-07-31T10:04:03Z</time>
      </trkpt>
      <trkpt lat="47.28902" lon="4.98215">
        <ele>391.741</ele>
        <time>2012-07-31T10:04:14Z</time>
      </trkpt>
      <trkpt lat="47.28898" lon="4.9824">
        <ele>390.819</ele>
        <time>2012-07-31T10:04:25Z</time>
      </trkpt>
      <trkpt lat="47.28897" lon="4.9826">
        <ele>391.128</ele>
        <time>2012-07-31T10:04:36Z</time>
      </trkpt>
      <trkpt lat="47.28893" lon="4.98283">
        <ele>389.734</ele>
        <time>2012-07-31T10:04:47Z</time>
      </trkpt>
      <trkpt lat="47.28893" lon="4.98307">
        <ele>388.398</ele>
        <time>2012-07-31T10:04:58Z</time>
      </trkpt>
      <trkpt lat="47.28895" lon="4.98328">
        <ele>387.85</ele>
        <time>2012-07-31T10:05:09Z</time>
      </trkpt>
      <trkpt lat="47.289" lon="4.98348">
        <ele>387.949</ele>
        <time>2012-07-31T10:05:20Z</time>
      </trkpt>
      <trkpt lat="47.28905" lon="4.98367">
        <ele>375.2</ele>
        <time>2012-07-31T10:05:31Z</time>
      </trkpt>
      <trkpt lat="47.28908" lon="4.98387">
        <ele>388.61</ele>
        <time>2012-07-31T10:05:42Z</time>
      </trkpt>
      <trkpt lat="47.28912" lon="4.98408">
        <ele>388.327</ele>
        <time>2012-07-31T10:05:53Z</time>
      </trkpt>
      <trkpt lat="47.28915" lon="4.98432">
        <ele>386.9</ele>
        <time>2012-07-31T10:06:04Z</time>
      </trkpt>
      <trkpt lat="47.28913" lon="4.98453">
        <ele>385.345</ele>
        <time>2012-07-31T10:06:15Z</time>
      </trkpt>
      <trkpt lat="47.28915" lon="4.98475">
        <ele>385.104</ele>
        <time>2012-07-31T10:06:26Z</time>
      </trkpt>
      <trkpt lat="47.28917" lon="4.98497">
        <ele>383.309</ele>
        <time>2012-07-31T10:06:37Z</time>
      </trkpt>
      <trkpt lat="47.28917" lon="4.98517">
        <ele>383.827</ele>
        <time>2012-07-31T10:06:48Z</time>
      </trkpt>
      <trkpt lat="47.2892" lon="4.98535">
        <ele>373.1</ele>
        <time>2012-07-31T10:06:59Z</time>
      </trkpt>
      <trkpt lat="47.28923" lon="4.98558">
        <ele>383.352</ele>
        <time>2012-07-31T10:07:10Z</time>
      </trkpt>
      <trkpt lat="47.28918" lon="4.98578">
        <ele>382.312</ele>
        <time>2012-07-31T10:07:21Z</time>
      </trkpt>
      <trkpt lat="47.28912" lon="4.98598">
        <ele>381.724</ele>
        <time>2012-07-31T10:07:32Z</time>
      </trkpt>
      <trkpt lat="47.28905" lon="4.98615">
        <ele>382.779</ele>
        <time>2012-07-31T10:07:43Z</time>
      </trkpt>
      <trkpt lat="47.289" lon="4.98638">
        <ele>382.969</ele>
        <time>2012-07-31T10:07:54Z</time>
      </trkpt>
      <trkpt lat="47.28893" lon="4.98658">
        <ele>382.495</ele>
        <time>2012-07-31T10:08:05Z</time>
      </trkpt>
      <trkpt lat="47.28887" lon="4.9868">
        <ele>381.566</ele>
        <time>2012-07-31T10:08:16Z</time>
      </trkpt>
      <trkpt lat="47.28885" lon="4.98697">
        <ele>381.091</ele>
        <time>2012-07-31T10:08:27Z</time>
      </trkpt>
      <trkpt lat="47.28883" lon="4.98713">
        <ele>381.006</ele>
        <time>2012-07-31T10:08:38Z</time>
      </trkpt>
      <trkpt lat="47.28882" lon="4.98725">
        <ele>381.516</ele>
        <time>2012-07-31T10:08:49Z</time>
      </trkpt>
      <trkpt lat="47.28868" lon="4.98742">
        <ele>378.642</ele>
        <time>2012-07-31T10:09:00Z</time>
      </trkpt>
      <trkpt lat="47.2886" lon="4.98752">
        <ele>377.516</ele>
        <time>2012-07-31T10:09:11Z</time>
      </trkpt>
      <trkpt lat="47.2885" lon="4.98773">
        <ele>375.031</ele>
        <time>2012-07-31T10:09:22Z</time>
      </trkpt>
      <trkpt lat="47.28842" lon="4.98797">
        <ele>372.607</ele>
        <time>2012-07-31T10:09:33Z</time>
      </trkpt>
      <trkpt lat="47.28833" lon="4.98822">
        <ele>371.146</ele>
        <time>2012-07-31T10:09:44Z</time>
      </trkpt>
      <trkpt lat="47.2883" lon="4.98843">
        <ele>353.5</ele>
        <time>2012-07-31T10:09:55Z</time>
      </trkpt>
      <trkpt lat="47.28833" lon="4.98862">
        <ele>370.478</ele>
        <time>2012-07-31T10:10:06Z</time>
      </trkpt>
      <trkpt lat="47.2884" lon="4.98877">
        <ele>369.784</ele>
        <time>2012-07-31T10:10:17Z</time>
      </trkpt>
      <trkpt lat="47.28852" lon="4.98893">
        <ele>369.823</ele>
        <time>2012-07-31T10:10:28Z</time>
      </trkpt>
      <trkpt lat="47.28865" lon="4.98905">
        <ele>369.367</ele>
        <time>2012-07-31T10:10:39Z</time>
      </trkpt>
      <trkpt lat="47.28877" lon="4.9892">
        <ele>369.518</ele>
        <time>2012-07-31T10:10:50Z</time>
      </trkpt>
      <trkpt lat="47.28888" lon="4.98935">
        <ele>371.249</ele>
        <time>2012-07-31T10:11:01Z</time>
      </trkpt>
      <trkpt lat="47.28902" lon="4.98952">
        <ele>367.546</ele>
        <time>2012-07-31T10:11:12Z</time>
      </trkpt>
      <trkpt lat="47.28913" lon="4.98965">
        <ele>367.745</ele>
        <time>2012-07-31T10:11:23Z</time>
      </trkpt>
      <trkpt lat="47.28927" lon="4.9898">
        <ele>367.461</ele>
        <time>2012-07-31T10:11:34Z</time>
      </trkpt>
      <trkpt lat="47.28935" lon="4.98992">
        <ele>368.039</ele>
        <time>2012-07-31T10:11:45Z</time>
      </trkpt>
      <trkpt lat="47.28942" lon="4.99005">
        <ele>366.644</ele>
        <time>2012-07-31T10:11:56Z</time>
      </trkpt>
      <trkpt lat="47.28952" lon="4.99022">
        <ele>364.33</ele>
        <time>2012-07-31T10:12:07Z</time>
      </trkpt>
      <trkpt lat="47.2896" lon="4.99037">
        <ele>350.4</ele>
        <time>2012-07-31T10:12:18Z</time>
      </trkpt>
      <trkpt lat="47.28973" lon="4.99053">
        <ele>361.048</ele>
        <time>2012-07-31T10:12:29Z</time>
      </trkpt>
      <trkpt lat="47.28982" lon="4.99068">
        <ele>360.14</ele>
        <time>2012-07-31T10:12:40Z</time>
      </trkpt>
      <trkpt lat="47.28993" lon="4.99088">
        <ele>360.955</ele>
        <time>2012-07-31T10:12:51Z</time>
      </trkpt>
      <trkpt lat="47.29003" lon="4.99107">
        <ele>359.734</ele>
        <time>2012-07-31T10:13:02Z</time>
      </trkpt>
      <trkpt lat="47.29013" lon="4.99123">
        <ele>356.306</ele>
        <time>2012-07-31T10:13:13Z</time>
      </trkpt>
      <trkpt lat="47.29025" lon="4.99138">
        <ele>354.371</ele>
        <time>2012-07-31T10:13:24Z</time>
      </trkpt>
      <trkpt lat="47.29037" lon="4.99147">
        <ele>353.851</ele>
        <time>2012-07-31T10:13:35Z</time>
      </trkpt>
      <trkpt lat="47.29042" lon="4.99165">
        <ele>353.962</ele>
        <time>2012-07-31T10:13:46Z</time>
      </trkpt>
      <trkpt lat="47.29043" lon="4.99182">
        <ele>352.419</ele>
        <time>2012-07-31T10:13:57Z</time>
      </trkpt>
      <trkpt lat="47.29045" lon="4.992">
        <ele>353.784</ele>
        <time>2012-07-31T10:14:08Z</time>
      </trkpt>
      <trkpt lat="47.29045" lon="4.99213">
        <ele>353.089</ele>
        <time>2012-07-31T10:14:19Z</time>
      </trkpt>
      <trkpt lat="47.29047" lon="4.99225">
        <ele>352.925</ele>
        <time>2012-07-31T10:14:30Z</time>
      </trkpt>
      <trkpt lat="47.29048" lon="4.99248">
        <ele>351.121</ele>
        <time>2012-07-31T10:14:41Z</time>
      </trkpt>
      <trkpt lat="47.2905" lon="4.99277">
        <ele>346.235</ele>
        <time>2012-07-31T10:14:52Z</time>
      </trkpt>
      <trkpt lat="47.29053" lon="4.99302">
        <ele>344.686</ele>
        <time>2012-07-31T10:15:03Z</time>
      </trkpt>
      <trkpt lat="47.29058" lon="4.99325">
        <ele>343.681</ele>
        <time>2012-07-31T10:15:14Z</time>
      </trkpt>
      <trkpt lat="47.29062" lon="4.99348">
        <ele>341.957</ele>
        <time>2012-07-31T10:15:25Z</time>
      </trkpt>
      <trkpt lat="47.29068" lon="4.99368">
        <ele>339.644</ele>
        <time>2012-07-31T10:15:36Z</time>
      </trkpt>
      <trkpt lat="47.2907" lon="4.99383">
        <ele>339.21</ele>
        <time>2012-07-31T10:15:47Z</time>
      </trkpt>
      <trkpt lat="47.2907" lon="4.99383">
        <ele>339.623</ele>
        <time>2012-07-31T10:15:58Z</time>
      </trkpt>
      <trkpt lat="47.29072" lon="4.99385">
        <ele>339.949</ele>
        <time>2012-07-31T10:16:09Z</time>
      </trkpt>
      <trkpt lat="47.29067" lon="4.99397">
        <ele>339.87</ele>
        <time>2012-07-31T10:16:20Z</time>
      </trkpt>
      <trkpt lat="47.29065" lon="4.99413">
        <ele>339.778</ele>
        <time>2012-07-31T10:16:31Z</time>
      </trkpt>
      <trkpt lat="47.29063" lon="4.9943">
        <ele>342.225</ele>
        <time>2012-07-31T10:16:42Z</time>
      </trkpt>
      <trkpt lat="47.29065" lon="4.99443">
        <ele>340.854</ele>
        <time>2012-07-31T10:16:53Z</time>
      </trkpt>
      <trkpt lat="47.29065" lon="4.99445">
        <ele>341.247</ele>
        <time>2012-07-31T10:17:04Z</time>
      </trkpt>
      <trkpt lat="47.29067" lon="4.99453">
        <ele>340.343</ele>
        <time>2012-07-31T10:17:15Z</time>
      </trkpt>
      <trkpt lat="47.29072" lon="4.99472">
        <ele>339.084</ele>
        <time>2012-07-31T10:17:26Z</time>
      </trkpt>
      <trkpt lat="47.29075" lon="4.9949">
        <ele>335.374</ele>
        <time>2012-07-31T10:17:37Z</time>
      </trkpt>
      <trkpt lat="47.29083" lon="4.9951">
        <ele>332.978</ele>
        <time>2012-07-31T10:17:48Z</time>
      </trkpt>
      <trkpt lat="47.29093" lon="4.99527">
        <ele>332.238</ele>
        <time>2012-07-31T10:17:59Z</time>
      </trkpt>
      <trkpt lat="47.29102" lon="4.99538">
        <ele>331.455</ele>
        <time>2012-07-31T10:18:10Z</time>
      </trkpt>
      <trkpt lat="47.29112" lon="4.99553">
        <ele>330.749</ele>
        <time>2012-07-31T10:18:21Z</time>
      </trkpt>
      <trkpt lat="47.2912" lon="4.99572">
        <ele>330.199</ele>
        <time>2012-07-31T10:18:32Z</time>
      </trkpt>
      <trkpt lat="47.29132" lon="4.9958">
        <ele>331.127</ele>
        <time>2012-07-31T10:18:43Z</time>
      </trkpt>
      <trkpt lat="47.2914" lon="4.99592">
        <ele>333.073</ele>
        <time>2012-07-31T10:18:54Z</time>
      </trkpt>
      <trkpt lat="47.29153" lon="4.996">
        <ele>332.995</ele>
        <time>2012-07-31T10:19:05Z</time>
      </trkpt>
      <trkpt lat="47.29162" lon="4.99618">
        <ele>328.268</ele>
        <time>2012-07-31T10:19:16Z</time>
      </trkpt>
      <trkpt lat="47.2917" lon="4.99633">
        <ele>326.558</ele>
        <time>2012-07-31T10:19:27Z</time>
      </trkpt>
      <trkpt lat="47.2918" lon="4.99648">
        <ele>324.272</ele>
        <time>2012-07-31T10:19:38Z</time>
      </trkpt>
      <trkpt lat="47.29188" lon="4.9966">
        <ele>322.877</ele>
        <time>2012-07-31T10:19:49Z</time>
      </trkpt>
      <trkpt lat="47.29198" lon="4.99667">
        <ele>303.6</ele>
        <time>2012-07-31T10:20:00Z</time>
      </trkpt>
      <trkpt lat="47.29212" lon="4.9967">
        <ele>318.943</ele>
        <time>2012-07-31T10:20:11Z</time>
      </trkpt>
      <trkpt lat="47.29225" lon="4.99673">
        <ele>317.066</ele>
        <time>2012-07-31T10:20:22Z</time>
      </trkpt>
      <trkpt lat="47.29238" lon="4.9968">
        <ele>317.685</ele>
        <time>2012-07-31T10:20:33Z</time>
      </trkpt>
      <trkpt lat="47.29252" lon="4.99688">
        <ele>316.793</ele>
        <time>2012-07-31T10:20:44Z</time>
      </trkpt>
      <trkpt lat="47.29263" lon="4.997">
        <ele>316.168</ele>
        <time>2012-07-31T10:20:55Z</time>
      </trkpt>
      <trkpt lat="47.29265" lon="4.99717">
        <ele>316.131</ele>
        <time>2012-07-31T10:21:06Z</time>
      </trkpt>
      <trkpt lat="47.29263" lon="4.99737">
        <ele>315.458</ele>
        <time>2012-07-31T10:21:17Z</time>
      </trkpt>
      <trkpt lat="47.29263" lon="4.99752">
        <ele>293.4</ele>
        <time>2012-07-31T10:21:28Z</time>
      </trkpt>
      <trkpt lat="47.2926" lon="4.99775">
        <ele>313.255</ele>
        <time>2012-07-31T10:21:39Z</time>
      </trkpt>
      <trkpt lat="47.29262" lon="4.9979">
        <ele>314.9</ele>
        <time>2012-07-31T10:21:50Z</time>
      </trkpt>
      <trkpt lat="47.29258" lon="4.99807">
        <ele>315.549</ele>
        <time>2012-07-31T10:22:01Z</time>
      </trkpt>
      <trkpt lat="47.29255" lon="4.9982">
        <ele>317.61</ele>
        <time>2012-07-31T10:22:12Z</time>
      </trkpt>
      <trkpt lat="47.2925" lon="4.99838">
        <ele>317.391</ele>
        <time>2012-07-31T10:22:23Z</time>
      </trkpt>
      <trkpt lat="47.29245" lon="4.99863">
        <ele>314.166</ele>
        <time>2012-07-31T10:22:34Z</time>
      </trkpt>
      <trkpt lat="47.29238" lon="4.99883">
        <ele>314.93</ele>
        <time>2012-07-31T10:22:45Z</time>
      </trkpt>
      <trkpt lat="47.29232" lon="4.99902">
        <ele>315.985</ele>
        <time>2012-07-31T10:22:56Z</time>
      </trkpt>
      <trkpt lat="47.29232" lon="4.99912">
        <ele>317.281</ele>
        <time>2012-07-31T10:23:07Z</time>
      </trkpt>
      <trkpt lat="47.29232" lon="4.99933">
        <ele>283</ele>
        <time>2012-07-31T10:23:18Z</time>
      </trkpt>
      <trkpt lat="47.2923" lon="4.99952">
        <ele>318.192</ele>
        <time>2012-07-31T10:23:29Z</time>
      </trkpt>
      <trkpt lat="47.29233" lon="4.99965">
        <ele>316.681</ele>
        <time>2012-07-31T10:23:40Z</time>
      </trkpt>
      <trkpt lat="47.29227" lon="4.99985">
        <ele>315.534</ele>
        <time>2012-07-31T10:23:51Z</time>
      </trkpt>
      <trkpt lat="47.29223" lon="4.99998">
        <ele>317.596</ele>
        <time>2012-07-31T10:24:02Z</time>
      </trkpt>
      <trkpt lat="47.29222" lon="5.00015">
        <ele>315.666</ele>
        <time>2012-07-31T10:24:13Z</time>
      </trkpt>
      <trkpt lat="47.29215" lon="5.0004">
        <ele>314.57</ele>
        <time>2012-07-31T10:24:24Z</time>
      </trkpt>
      <trkpt lat="47.29212" lon="5.00063">
        <ele>315.758</ele>
        <time>2012-07-31T10:24:35Z</time>
      </trkpt>
      <trkpt lat="47.29207" lon="5.0008">
        <ele>313.11</ele>
        <time>2012-07-31T10:24:46Z</time>
      </trkpt>
      <trkpt lat="47.29207" lon="5.00092">
        <ele>311.152</ele>
        <time>2012-07-31T10:24:57Z</time>
      </trkpt>
      <trkpt lat="47.29203" lon="5.00112">
        <ele>308.169</ele>
        <time>2012-07-31T10:25:08Z</time>
      </trkpt>
      <trkpt lat="47.292" lon="5.00132">
        <ele>306.795</ele>
        <time>2012-07-31T10:25:19Z</time>
      </trkpt>
      <trkpt lat="47.29193" lon="5.00153">
        <ele>303.625</ele>
        <time>2012-07-31T10:25:30Z</time>
      </trkpt>
      <trkpt lat="47.29198" lon="5.00167">
        <ele>303.462</ele>
        <time>2012-07-31T10:25:41Z</time>
      </trkpt>
      <trkpt lat="47.29205" lon="5.00177">
        <ele>303.236</ele>
        <time>2012-07-31T10:25:52Z</time>
      </trkpt>
      <trkpt lat="47.2921" lon="5.00187">
        <ele>304.982</ele>
        <time>2012-07-31T10:26:03Z</time>
      </trkpt>
      <trkpt lat="47.29222" lon="5.002">
        <ele>299.956</ele>
        <time>2012-07-31T10:26:15Z</time>
      </trkpt>
      <trkpt lat="47.29223" lon="5.00218">
        <ele>301.448</ele>
        <time>2012-07-31T10:26:26Z</time>
      </trkpt>
      <trkpt lat="47.29213" lon="5.00228">
        <ele>299.193</ele>
        <time>2012-07-31T10:26:37Z</time>
      </trkpt>
      <trkpt lat="47.29208" lon="5.0025">
        <ele>301.431</ele>
        <time>2012-07-31T10:26:48Z</time>
      </trkpt>
      <trkpt lat="47.29198" lon="5.00273">
        <ele>301.195</ele>
        <time>2012-07-31T10:26:59Z</time>
      </trkpt>
      <trkpt lat="47.29192" lon="5.00293">
        <ele>302.318</ele>
        <time>2012-07-31T10:27:10Z</time>
      </trkpt>
      <trkpt lat="47.29192" lon="5.0031">
        <ele>300.215</ele>
        <time>2012-07-31T10:27:21Z</time>
      </trkpt>
      <trkpt lat="47.29192" lon="5.0033">
        <ele>301.387</ele>
        <time>2012-07-31T10:27:32Z</time>
      </trkpt>
      <trkpt lat="47.29198" lon="5.0034">
        <ele>300.093</ele>
        <time>2012-07-31T10:27:43Z</time>
      </trkpt>
      <trkpt lat="47.29212" lon="5.0035">
        <ele>299.441</ele>
        <time>2012-07-31T10:27:54Z</time>
      </trkpt>
      <trkpt lat="47.2922" lon="5.00362">
        <ele>299.496</ele>
        <time>2012-07-31T10:28:05Z</time>
      </trkpt>
      <trkpt lat="47.29213" lon="5.0038">
        <ele>297.405</ele>
        <time>2012-07-31T10:28:16Z</time>
      </trkpt>
      <trkpt lat="47.29205" lon="5.00392">
        <ele>302.227</ele>
        <time>2012-07-31T10:28:27Z</time>
      </trkpt>
      <trkpt lat="47.29213" lon="5.00403">
        <ele>305.901</ele>
        <time>2012-07-31T10:28:38Z</time>
      </trkpt>
      <trkpt lat="47.2922" lon="5.00417">
        <ele>311.624</ele>
        <time>2012-07-31T10:28:49Z</time>
      </trkpt>
      <trkpt lat="47.29225" lon="5.00427">
        <ele>311.576</ele>
        <time>2012-07-31T10:29:00Z</time>
      </trkpt>
      <trkpt lat="47.29223" lon="5.0044">
        <ele>309.174</ele>
        <time>2012-07-31T10:29:11Z</time>
      </trkpt>
      <trkpt lat="47.2922" lon="5.0046">
        <ele>306.478</ele>
        <time>2012-07-31T10:29:22Z</time>
      </trkpt>
      <trkpt lat="47.2922" lon="5.0047">
        <ele>302.631</ele>
        <time>2012-07-31T10:29:33Z</time>
      </trkpt>
      <trkpt lat="47.29225" lon="5.00492">
        <ele>298.228</ele>
        <time>2012-07-31T10:29:44Z</time>
      </trkpt>
      <trkpt lat="47.29225" lon="5.00517">
        <ele>297.591</ele>
        <time>2012-07-31T10:29:55Z</time>
      </trkpt>
      <trkpt lat="47.29227" lon="5.00537">
        <ele>294.846</ele>
        <time>2012-07-31T10:30:06Z</time>
      </trkpt>
    </trkseg>
  </trk>
</gpx>